<?xml version="1.0" encoding="UTF-8" standalone="no" ?>
<gpx xmlns="http://www.topografix.com/GPX/1/1" xmlns:xsi="http://www.w3.org/2001/XMLSchema-instance" xsi:schemaLocation="http://www.topografix.com/GPX/1/1 http://www.topografix.com/GPX/1/1/gpx.xsd" version="1.1" creator="VisuGPX - https://www.visugpx.com">
  <metadata>
    <name>Tracé Randuro En terre inconnue 2020</name>
    <desc><![CDATA[
]]></desc>
  </metadata>
  <trk>
    <name><![CDATA[Sortie à vélo matinale]]></name>
    <trkseg>
      <trkpt lat="44.16078" lon="4.67946">
        <ele>130.6</ele>
        <time>2020-02-23T07:49:16Z</time>
      </trkpt>
      <trkpt lat="44.16082" lon="4.67971">
        <ele>131.6</ele>
        <time>2020-02-23T07:49:23Z</time>
      </trkpt>
      <trkpt lat="44.16071" lon="4.67992">
        <ele>132.8</ele>
        <time>2020-02-23T07:49:30Z</time>
      </trkpt>
      <trkpt lat="44.16067" lon="4.67994">
        <ele>133</ele>
        <time>2020-02-23T07:49:32Z</time>
      </trkpt>
      <trkpt lat="44.16049" lon="4.67993">
        <ele>134</ele>
        <time>2020-02-23T07:49:40Z</time>
      </trkpt>
      <trkpt lat="44.1603" lon="4.67998">
        <ele>135</ele>
        <time>2020-02-23T07:49:49Z</time>
      </trkpt>
      <trkpt lat="44.16012" lon="4.68006">
        <ele>135.9</ele>
        <time>2020-02-23T07:49:57Z</time>
      </trkpt>
      <trkpt lat="44.15994" lon="4.68011">
        <ele>137</ele>
        <time>2020-02-23T07:50:06Z</time>
      </trkpt>
      <trkpt lat="44.15975" lon="4.6801">
        <ele>138.6</ele>
        <time>2020-02-23T07:50:15Z</time>
      </trkpt>
      <trkpt lat="44.15955" lon="4.68004">
        <ele>139.6</ele>
        <time>2020-02-23T07:50:24Z</time>
      </trkpt>
      <trkpt lat="44.15937" lon="4.67995">
        <ele>140.2</ele>
        <time>2020-02-23T07:50:33Z</time>
      </trkpt>
      <trkpt lat="44.15918" lon="4.67989">
        <ele>140.4</ele>
        <time>2020-02-23T07:50:42Z</time>
      </trkpt>
      <trkpt lat="44.15899" lon="4.67988">
        <ele>140.5</ele>
        <time>2020-02-23T07:50:51Z</time>
      </trkpt>
      <trkpt lat="44.1588" lon="4.67994">
        <ele>140.4</ele>
        <time>2020-02-23T07:51:00Z</time>
      </trkpt>
      <trkpt lat="44.15862" lon="4.68005">
        <ele>140.3</ele>
        <time>2020-02-23T07:51:08Z</time>
      </trkpt>
      <trkpt lat="44.15846" lon="4.68022">
        <ele>139.7</ele>
        <time>2020-02-23T07:51:17Z</time>
      </trkpt>
      <trkpt lat="44.15844" lon="4.68046">
        <ele>139.7</ele>
        <time>2020-02-23T07:51:26Z</time>
      </trkpt>
      <trkpt lat="44.15851" lon="4.68071">
        <ele>139.8</ele>
        <time>2020-02-23T07:51:33Z</time>
      </trkpt>
      <trkpt lat="44.15865" lon="4.68092">
        <ele>140.2</ele>
        <time>2020-02-23T07:51:39Z</time>
      </trkpt>
      <trkpt lat="44.15879" lon="4.68111">
        <ele>140.6</ele>
        <time>2020-02-23T07:51:45Z</time>
      </trkpt>
      <trkpt lat="44.15892" lon="4.6813">
        <ele>140.6</ele>
        <time>2020-02-23T07:51:50Z</time>
      </trkpt>
      <trkpt lat="44.15903" lon="4.68156">
        <ele>140.6</ele>
        <time>2020-02-23T07:51:56Z</time>
      </trkpt>
      <trkpt lat="44.15904" lon="4.68181">
        <ele>140.6</ele>
        <time>2020-02-23T07:52:02Z</time>
      </trkpt>
      <trkpt lat="44.15898" lon="4.68208">
        <ele>140.9</ele>
        <time>2020-02-23T07:52:09Z</time>
      </trkpt>
      <trkpt lat="44.15892" lon="4.68233">
        <ele>141.7</ele>
        <time>2020-02-23T07:52:17Z</time>
      </trkpt>
      <trkpt lat="44.15886" lon="4.68258">
        <ele>142.6</ele>
        <time>2020-02-23T07:52:23Z</time>
      </trkpt>
      <trkpt lat="44.15881" lon="4.68282">
        <ele>142.7</ele>
        <time>2020-02-23T07:52:28Z</time>
      </trkpt>
      <trkpt lat="44.15877" lon="4.68308">
        <ele>142.9</ele>
        <time>2020-02-23T07:52:34Z</time>
      </trkpt>
      <trkpt lat="44.15873" lon="4.68336">
        <ele>143.4</ele>
        <time>2020-02-23T07:52:41Z</time>
      </trkpt>
      <trkpt lat="44.15874" lon="4.68363">
        <ele>143.7</ele>
        <time>2020-02-23T07:52:47Z</time>
      </trkpt>
      <trkpt lat="44.15878" lon="4.6839">
        <ele>143.7</ele>
        <time>2020-02-23T07:52:52Z</time>
      </trkpt>
      <trkpt lat="44.15882" lon="4.68415">
        <ele>143.7</ele>
        <time>2020-02-23T07:52:57Z</time>
      </trkpt>
      <trkpt lat="44.15887" lon="4.68441">
        <ele>143.3</ele>
        <time>2020-02-23T07:53:05Z</time>
      </trkpt>
      <trkpt lat="44.15895" lon="4.68444">
        <ele>143.1</ele>
        <time>2020-02-23T07:53:09Z</time>
      </trkpt>
      <trkpt lat="44.15914" lon="4.68443">
        <ele>142.8</ele>
        <time>2020-02-23T07:53:16Z</time>
      </trkpt>
      <trkpt lat="44.15917" lon="4.68444">
        <ele>143.2</ele>
        <time>2020-02-23T07:53:17Z</time>
      </trkpt>
      <trkpt lat="44.1593" lon="4.6845">
        <ele>143.3</ele>
        <time>2020-02-23T07:53:22Z</time>
      </trkpt>
      <trkpt lat="44.15945" lon="4.68465">
        <ele>143.1</ele>
        <time>2020-02-23T07:53:33Z</time>
      </trkpt>
      <trkpt lat="44.1595" lon="4.68466">
        <ele>143.5</ele>
        <time>2020-02-23T07:53:36Z</time>
      </trkpt>
      <trkpt lat="44.15968" lon="4.68475">
        <ele>143.1</ele>
        <time>2020-02-23T07:53:44Z</time>
      </trkpt>
      <trkpt lat="44.15978" lon="4.68479">
        <ele>142.9</ele>
        <time>2020-02-23T07:53:48Z</time>
      </trkpt>
      <trkpt lat="44.15996" lon="4.68481">
        <ele>142</ele>
        <time>2020-02-23T07:53:54Z</time>
      </trkpt>
      <trkpt lat="44.16004" lon="4.6848">
        <ele>141.9</ele>
        <time>2020-02-23T07:53:56Z</time>
      </trkpt>
      <trkpt lat="44.16024" lon="4.68477">
        <ele>140.5</ele>
        <time>2020-02-23T07:54:01Z</time>
      </trkpt>
      <trkpt lat="44.16041" lon="4.68486">
        <ele>138.9</ele>
        <time>2020-02-23T07:54:09Z</time>
      </trkpt>
      <trkpt lat="44.16056" lon="4.68499">
        <ele>137.2</ele>
        <time>2020-02-23T07:54:17Z</time>
      </trkpt>
      <trkpt lat="44.16065" lon="4.68506">
        <ele>136.4</ele>
        <time>2020-02-23T07:54:22Z</time>
      </trkpt>
      <trkpt lat="44.16077" lon="4.68511">
        <ele>135.2</ele>
        <time>2020-02-23T07:54:28Z</time>
      </trkpt>
      <trkpt lat="44.1609" lon="4.68523">
        <ele>134.3</ele>
        <time>2020-02-23T07:54:35Z</time>
      </trkpt>
      <trkpt lat="44.16086" lon="4.68535">
        <ele>134.2</ele>
        <time>2020-02-23T07:54:41Z</time>
      </trkpt>
      <trkpt lat="44.16081" lon="4.68564">
        <ele>132.2</ele>
        <time>2020-02-23T07:54:56Z</time>
      </trkpt>
      <trkpt lat="44.16075" lon="4.68591">
        <ele>130</ele>
        <time>2020-02-23T07:55:01Z</time>
      </trkpt>
      <trkpt lat="44.16073" lon="4.68597">
        <ele>129.4</ele>
        <time>2020-02-23T07:55:02Z</time>
      </trkpt>
      <trkpt lat="44.16065" lon="4.68625">
        <ele>128.2</ele>
        <time>2020-02-23T07:55:06Z</time>
      </trkpt>
      <trkpt lat="44.16055" lon="4.6865">
        <ele>128.2</ele>
        <time>2020-02-23T07:55:09Z</time>
      </trkpt>
      <trkpt lat="44.16048" lon="4.68675">
        <ele>128.9</ele>
        <time>2020-02-23T07:55:12Z</time>
      </trkpt>
      <trkpt lat="44.1604" lon="4.68698">
        <ele>129.7</ele>
        <time>2020-02-23T07:55:15Z</time>
      </trkpt>
      <trkpt lat="44.16032" lon="4.68724">
        <ele>130.8</ele>
        <time>2020-02-23T07:55:21Z</time>
      </trkpt>
      <trkpt lat="44.16025" lon="4.68749">
        <ele>131.9</ele>
        <time>2020-02-23T07:55:27Z</time>
      </trkpt>
      <trkpt lat="44.16019" lon="4.68774">
        <ele>133.3</ele>
        <time>2020-02-23T07:55:34Z</time>
      </trkpt>
      <trkpt lat="44.1601" lon="4.688">
        <ele>135.1</ele>
        <time>2020-02-23T07:55:42Z</time>
      </trkpt>
      <trkpt lat="44.16003" lon="4.6881">
        <ele>136.2</ele>
        <time>2020-02-23T07:55:46Z</time>
      </trkpt>
      <trkpt lat="44.16001" lon="4.68799">
        <ele>136</ele>
        <time>2020-02-23T07:55:52Z</time>
      </trkpt>
      <trkpt lat="44.16005" lon="4.68771">
        <ele>135.6</ele>
        <time>2020-02-23T07:55:59Z</time>
      </trkpt>
      <trkpt lat="44.16007" lon="4.68744">
        <ele>135.4</ele>
        <time>2020-02-23T07:56:06Z</time>
      </trkpt>
      <trkpt lat="44.16001" lon="4.6872">
        <ele>135.3</ele>
        <time>2020-02-23T07:56:13Z</time>
      </trkpt>
      <trkpt lat="44.15993" lon="4.68697">
        <ele>135.3</ele>
        <time>2020-02-23T07:56:20Z</time>
      </trkpt>
      <trkpt lat="44.1598" lon="4.68675">
        <ele>135.5</ele>
        <time>2020-02-23T07:56:27Z</time>
      </trkpt>
      <trkpt lat="44.15968" lon="4.68652">
        <ele>136</ele>
        <time>2020-02-23T07:56:34Z</time>
      </trkpt>
      <trkpt lat="44.15957" lon="4.6863">
        <ele>136.3</ele>
        <time>2020-02-23T07:56:40Z</time>
      </trkpt>
      <trkpt lat="44.15953" lon="4.68605">
        <ele>136.5</ele>
        <time>2020-02-23T07:56:46Z</time>
      </trkpt>
      <trkpt lat="44.15952" lon="4.68578">
        <ele>136.9</ele>
        <time>2020-02-23T07:56:53Z</time>
      </trkpt>
      <trkpt lat="44.15953" lon="4.6855">
        <ele>137.1</ele>
        <time>2020-02-23T07:57:01Z</time>
      </trkpt>
      <trkpt lat="44.15949" lon="4.68542">
        <ele>137.2</ele>
        <time>2020-02-23T07:57:04Z</time>
      </trkpt>
      <trkpt lat="44.15938" lon="4.68544">
        <ele>137.5</ele>
        <time>2020-02-23T07:57:08Z</time>
      </trkpt>
      <trkpt lat="44.15926" lon="4.68567">
        <ele>138.4</ele>
        <time>2020-02-23T07:57:17Z</time>
      </trkpt>
      <trkpt lat="44.15918" lon="4.6859">
        <ele>139.4</ele>
        <time>2020-02-23T07:57:25Z</time>
      </trkpt>
      <trkpt lat="44.15918" lon="4.68616">
        <ele>140.5</ele>
        <time>2020-02-23T07:57:34Z</time>
      </trkpt>
      <trkpt lat="44.15916" lon="4.68641">
        <ele>141.5</ele>
        <time>2020-02-23T07:57:43Z</time>
      </trkpt>
      <trkpt lat="44.15915" lon="4.68667">
        <ele>142.4</ele>
        <time>2020-02-23T07:57:52Z</time>
      </trkpt>
      <trkpt lat="44.1591" lon="4.68695">
        <ele>143.4</ele>
        <time>2020-02-23T07:58:00Z</time>
      </trkpt>
      <trkpt lat="44.15904" lon="4.6872">
        <ele>144.3</ele>
        <time>2020-02-23T07:58:08Z</time>
      </trkpt>
      <trkpt lat="44.15896" lon="4.68742">
        <ele>145</ele>
        <time>2020-02-23T07:58:17Z</time>
      </trkpt>
      <trkpt lat="44.15897" lon="4.68768">
        <ele>145.4</ele>
        <time>2020-02-23T07:58:24Z</time>
      </trkpt>
      <trkpt lat="44.159" lon="4.68795">
        <ele>145.2</ele>
        <time>2020-02-23T07:58:32Z</time>
      </trkpt>
      <trkpt lat="44.15899" lon="4.68821">
        <ele>145.3</ele>
        <time>2020-02-23T07:58:40Z</time>
      </trkpt>
      <trkpt lat="44.15895" lon="4.68846">
        <ele>146.9</ele>
        <time>2020-02-23T07:58:48Z</time>
      </trkpt>
      <trkpt lat="44.15898" lon="4.68873">
        <ele>148.4</ele>
        <time>2020-02-23T07:58:57Z</time>
      </trkpt>
      <trkpt lat="44.15898" lon="4.689">
        <ele>149.9</ele>
        <time>2020-02-23T07:59:06Z</time>
      </trkpt>
      <trkpt lat="44.15903" lon="4.68925">
        <ele>150.8</ele>
        <time>2020-02-23T07:59:15Z</time>
      </trkpt>
      <trkpt lat="44.15904" lon="4.68951">
        <ele>151.4</ele>
        <time>2020-02-23T07:59:25Z</time>
      </trkpt>
      <trkpt lat="44.15899" lon="4.68977">
        <ele>151.9</ele>
        <time>2020-02-23T07:59:35Z</time>
      </trkpt>
      <trkpt lat="44.15896" lon="4.69002">
        <ele>152.3</ele>
        <time>2020-02-23T07:59:43Z</time>
      </trkpt>
      <trkpt lat="44.15889" lon="4.6902">
        <ele>152.5</ele>
        <time>2020-02-23T07:59:50Z</time>
      </trkpt>
      <trkpt lat="44.15871" lon="4.69009">
        <ele>154.4</ele>
        <time>2020-02-23T08:00:01Z</time>
      </trkpt>
      <trkpt lat="44.15853" lon="4.69005">
        <ele>155.2</ele>
        <time>2020-02-23T08:00:09Z</time>
      </trkpt>
      <trkpt lat="44.15834" lon="4.68998">
        <ele>155.7</ele>
        <time>2020-02-23T08:00:17Z</time>
      </trkpt>
      <trkpt lat="44.15816" lon="4.6899">
        <ele>156</ele>
        <time>2020-02-23T08:00:25Z</time>
      </trkpt>
      <trkpt lat="44.15798" lon="4.68983">
        <ele>156.5</ele>
        <time>2020-02-23T08:00:33Z</time>
      </trkpt>
      <trkpt lat="44.15779" lon="4.68978">
        <ele>156.9</ele>
        <time>2020-02-23T08:00:39Z</time>
      </trkpt>
      <trkpt lat="44.15759" lon="4.68971">
        <ele>157.6</ele>
        <time>2020-02-23T08:00:45Z</time>
      </trkpt>
      <trkpt lat="44.15741" lon="4.68965">
        <ele>158.1</ele>
        <time>2020-02-23T08:00:50Z</time>
      </trkpt>
      <trkpt lat="44.15721" lon="4.6896">
        <ele>159</ele>
        <time>2020-02-23T08:00:56Z</time>
      </trkpt>
      <trkpt lat="44.15702" lon="4.68956">
        <ele>161.2</ele>
        <time>2020-02-23T08:01:03Z</time>
      </trkpt>
      <trkpt lat="44.15684" lon="4.68949">
        <ele>163.3</ele>
        <time>2020-02-23T08:01:10Z</time>
      </trkpt>
      <trkpt lat="44.15667" lon="4.68937">
        <ele>163</ele>
        <time>2020-02-23T08:01:19Z</time>
      </trkpt>
      <trkpt lat="44.15666" lon="4.68936">
        <ele>163.2</ele>
        <time>2020-02-23T08:01:21Z</time>
      </trkpt>
      <trkpt lat="44.15658" lon="4.6893">
        <ele>162.7</ele>
        <time>2020-02-23T08:03:34Z</time>
      </trkpt>
      <trkpt lat="44.15661" lon="4.689">
        <ele>161</ele>
        <time>2020-02-23T08:03:40Z</time>
      </trkpt>
      <trkpt lat="44.15661" lon="4.68888">
        <ele>160</ele>
        <time>2020-02-23T08:03:42Z</time>
      </trkpt>
      <trkpt lat="44.15674" lon="4.68864">
        <ele>158.6</ele>
        <time>2020-02-23T08:03:47Z</time>
      </trkpt>
      <trkpt lat="44.15678" lon="4.68861">
        <ele>158.5</ele>
        <time>2020-02-23T08:03:48Z</time>
      </trkpt>
      <trkpt lat="44.15682" lon="4.68857">
        <ele>158.3</ele>
        <time>2020-02-23T08:03:49Z</time>
      </trkpt>
      <trkpt lat="44.15702" lon="4.68847">
        <ele>157.1</ele>
        <time>2020-02-23T08:03:54Z</time>
      </trkpt>
      <trkpt lat="44.1572" lon="4.68847">
        <ele>156.6</ele>
        <time>2020-02-23T08:03:58Z</time>
      </trkpt>
      <trkpt lat="44.15725" lon="4.68847">
        <ele>156.7</ele>
        <time>2020-02-23T08:03:59Z</time>
      </trkpt>
      <trkpt lat="44.15745" lon="4.68844">
        <ele>155.4</ele>
        <time>2020-02-23T08:04:05Z</time>
      </trkpt>
      <trkpt lat="44.15754" lon="4.68845">
        <ele>155.1</ele>
        <time>2020-02-23T08:04:08Z</time>
      </trkpt>
      <trkpt lat="44.15758" lon="4.68835">
        <ele>154.6</ele>
        <time>2020-02-23T08:04:12Z</time>
      </trkpt>
      <trkpt lat="44.15761" lon="4.68832">
        <ele>154.8</ele>
        <time>2020-02-23T08:04:14Z</time>
      </trkpt>
      <trkpt lat="44.15768" lon="4.68814">
        <ele>154.2</ele>
        <time>2020-02-23T08:04:26Z</time>
      </trkpt>
      <trkpt lat="44.1577" lon="4.68809">
        <ele>154.4</ele>
        <time>2020-02-23T08:04:28Z</time>
      </trkpt>
      <trkpt lat="44.15771" lon="4.68783">
        <ele>153.6</ele>
        <time>2020-02-23T08:04:37Z</time>
      </trkpt>
      <trkpt lat="44.1577" lon="4.68757">
        <ele>152.7</ele>
        <time>2020-02-23T08:04:44Z</time>
      </trkpt>
      <trkpt lat="44.15769" lon="4.68754">
        <ele>153.1</ele>
        <time>2020-02-23T08:04:47Z</time>
      </trkpt>
      <trkpt lat="44.15759" lon="4.68751">
        <ele>153.1</ele>
        <time>2020-02-23T08:05:53Z</time>
      </trkpt>
      <trkpt lat="44.15748" lon="4.68748">
        <ele>153.2</ele>
        <time>2020-02-23T08:05:56Z</time>
      </trkpt>
      <trkpt lat="44.15737" lon="4.68741">
        <ele>153.1</ele>
        <time>2020-02-23T08:06:00Z</time>
      </trkpt>
      <trkpt lat="44.1572" lon="4.68732">
        <ele>152.6</ele>
        <time>2020-02-23T08:06:07Z</time>
      </trkpt>
      <trkpt lat="44.15704" lon="4.6872">
        <ele>151.2</ele>
        <time>2020-02-23T08:06:15Z</time>
      </trkpt>
      <trkpt lat="44.15687" lon="4.68709">
        <ele>148.5</ele>
        <time>2020-02-23T08:06:22Z</time>
      </trkpt>
      <trkpt lat="44.1568" lon="4.68705">
        <ele>146.8</ele>
        <time>2020-02-23T08:06:27Z</time>
      </trkpt>
      <trkpt lat="44.1567" lon="4.68693">
        <ele>144.7</ele>
        <time>2020-02-23T08:06:44Z</time>
      </trkpt>
      <trkpt lat="44.15655" lon="4.68681">
        <ele>140.8</ele>
        <time>2020-02-23T08:06:52Z</time>
      </trkpt>
      <trkpt lat="44.15644" lon="4.68683">
        <ele>138.4</ele>
        <time>2020-02-23T08:06:56Z</time>
      </trkpt>
      <trkpt lat="44.15626" lon="4.68673">
        <ele>133.2</ele>
        <time>2020-02-23T08:07:06Z</time>
      </trkpt>
      <trkpt lat="44.15622" lon="4.6867">
        <ele>132.2</ele>
        <time>2020-02-23T08:07:10Z</time>
      </trkpt>
      <trkpt lat="44.15613" lon="4.68671">
        <ele>129.4</ele>
        <time>2020-02-23T08:08:29Z</time>
      </trkpt>
      <trkpt lat="44.15593" lon="4.68679">
        <ele>123.4</ele>
        <time>2020-02-23T08:08:34Z</time>
      </trkpt>
      <trkpt lat="44.15575" lon="4.68684">
        <ele>116.3</ele>
        <time>2020-02-23T08:08:39Z</time>
      </trkpt>
      <trkpt lat="44.15571" lon="4.68687">
        <ele>115.6</ele>
        <time>2020-02-23T08:08:44Z</time>
      </trkpt>
      <trkpt lat="44.15562" lon="4.68697">
        <ele>112</ele>
        <time>2020-02-23T08:08:56Z</time>
      </trkpt>
      <trkpt lat="44.15549" lon="4.68702">
        <ele>107</ele>
        <time>2020-02-23T08:09:01Z</time>
      </trkpt>
      <trkpt lat="44.15528" lon="4.68699">
        <ele>99.5</ele>
        <time>2020-02-23T08:09:10Z</time>
      </trkpt>
      <trkpt lat="44.15516" lon="4.68692">
        <ele>96.1</ele>
        <time>2020-02-23T08:09:15Z</time>
      </trkpt>
      <trkpt lat="44.15512" lon="4.68692">
        <ele>95.7</ele>
        <time>2020-02-23T08:09:20Z</time>
      </trkpt>
      <trkpt lat="44.15503" lon="4.68698">
        <ele>93.9</ele>
        <time>2020-02-23T08:09:36Z</time>
      </trkpt>
      <trkpt lat="44.15498" lon="4.6872">
        <ele>93.1</ele>
        <time>2020-02-23T08:09:43Z</time>
      </trkpt>
      <trkpt lat="44.15494" lon="4.68746">
        <ele>93.1</ele>
        <time>2020-02-23T08:09:50Z</time>
      </trkpt>
      <trkpt lat="44.15494" lon="4.68775">
        <ele>94.4</ele>
        <time>2020-02-23T08:09:56Z</time>
      </trkpt>
      <trkpt lat="44.15488" lon="4.68806">
        <ele>94.1</ele>
        <time>2020-02-23T08:10:02Z</time>
      </trkpt>
      <trkpt lat="44.1548" lon="4.68832">
        <ele>92.8</ele>
        <time>2020-02-23T08:10:06Z</time>
      </trkpt>
      <trkpt lat="44.15479" lon="4.68855">
        <ele>93.8</ele>
        <time>2020-02-23T08:10:12Z</time>
      </trkpt>
      <trkpt lat="44.15476" lon="4.68863">
        <ele>93.3</ele>
        <time>2020-02-23T08:10:17Z</time>
      </trkpt>
      <trkpt lat="44.15478" lon="4.68874">
        <ele>93.9</ele>
        <time>2020-02-23T08:10:23Z</time>
      </trkpt>
      <trkpt lat="44.15486" lon="4.689">
        <ele>96.8</ele>
        <time>2020-02-23T08:10:29Z</time>
      </trkpt>
      <trkpt lat="44.15488" lon="4.68922">
        <ele>97.9</ele>
        <time>2020-02-23T08:10:35Z</time>
      </trkpt>
      <trkpt lat="44.155" lon="4.68938">
        <ele>103.1</ele>
        <time>2020-02-23T08:10:44Z</time>
      </trkpt>
      <trkpt lat="44.15505" lon="4.68964">
        <ele>105</ele>
        <time>2020-02-23T08:10:54Z</time>
      </trkpt>
      <trkpt lat="44.15508" lon="4.68991">
        <ele>106.8</ele>
        <time>2020-02-23T08:11:03Z</time>
      </trkpt>
      <trkpt lat="44.15512" lon="4.69014">
        <ele>110</ele>
        <time>2020-02-23T08:11:15Z</time>
      </trkpt>
      <trkpt lat="44.15513" lon="4.69022">
        <ele>110.5</ele>
        <time>2020-02-23T08:11:18Z</time>
      </trkpt>
      <trkpt lat="44.15516" lon="4.69048">
        <ele>112.9</ele>
        <time>2020-02-23T08:11:26Z</time>
      </trkpt>
      <trkpt lat="44.15518" lon="4.69075">
        <ele>115.3</ele>
        <time>2020-02-23T08:11:34Z</time>
      </trkpt>
      <trkpt lat="44.1552" lon="4.69102">
        <ele>116.4</ele>
        <time>2020-02-23T08:11:42Z</time>
      </trkpt>
      <trkpt lat="44.15517" lon="4.69127">
        <ele>115.9</ele>
        <time>2020-02-23T08:11:49Z</time>
      </trkpt>
      <trkpt lat="44.15516" lon="4.69137">
        <ele>116.2</ele>
        <time>2020-02-23T08:11:51Z</time>
      </trkpt>
      <trkpt lat="44.15515" lon="4.69153">
        <ele>115.1</ele>
        <time>2020-02-23T08:11:55Z</time>
      </trkpt>
      <trkpt lat="44.15508" lon="4.69177">
        <ele>113.4</ele>
        <time>2020-02-23T08:12:02Z</time>
      </trkpt>
      <trkpt lat="44.1551" lon="4.69195">
        <ele>115.1</ele>
        <time>2020-02-23T08:12:07Z</time>
      </trkpt>
      <trkpt lat="44.15507" lon="4.69224">
        <ele>115.2</ele>
        <time>2020-02-23T08:12:12Z</time>
      </trkpt>
      <trkpt lat="44.15506" lon="4.69231">
        <ele>115.7</ele>
        <time>2020-02-23T08:12:13Z</time>
      </trkpt>
      <trkpt lat="44.15499" lon="4.69257">
        <ele>114.9</ele>
        <time>2020-02-23T08:12:18Z</time>
      </trkpt>
      <trkpt lat="44.15492" lon="4.69282">
        <ele>113.4</ele>
        <time>2020-02-23T08:12:24Z</time>
      </trkpt>
      <trkpt lat="44.15484" lon="4.69306">
        <ele>113.3</ele>
        <time>2020-02-23T08:12:30Z</time>
      </trkpt>
      <trkpt lat="44.15472" lon="4.69324">
        <ele>112.7</ele>
        <time>2020-02-23T08:12:36Z</time>
      </trkpt>
      <trkpt lat="44.15456" lon="4.69337">
        <ele>112.1</ele>
        <time>2020-02-23T08:12:44Z</time>
      </trkpt>
      <trkpt lat="44.15457" lon="4.69349">
        <ele>114.2</ele>
        <time>2020-02-23T08:12:49Z</time>
      </trkpt>
      <trkpt lat="44.15472" lon="4.69362">
        <ele>118.8</ele>
        <time>2020-02-23T08:13:01Z</time>
      </trkpt>
      <trkpt lat="44.15489" lon="4.69372">
        <ele>122.2</ele>
        <time>2020-02-23T08:13:17Z</time>
      </trkpt>
      <trkpt lat="44.15489" lon="4.69372">
        <ele>122.6</ele>
        <time>2020-02-23T08:13:19Z</time>
      </trkpt>
      <trkpt lat="44.15533" lon="4.69381">
        <ele>129.5</ele>
        <time>2020-02-23T08:14:52Z</time>
      </trkpt>
      <trkpt lat="44.1555" lon="4.69392">
        <ele>129.7</ele>
        <time>2020-02-23T08:15:05Z</time>
      </trkpt>
      <trkpt lat="44.15565" lon="4.69407">
        <ele>129.7</ele>
        <time>2020-02-23T08:15:19Z</time>
      </trkpt>
      <trkpt lat="44.15581" lon="4.6942">
        <ele>129.6</ele>
        <time>2020-02-23T08:15:34Z</time>
      </trkpt>
      <trkpt lat="44.15596" lon="4.69435">
        <ele>129.3</ele>
        <time>2020-02-23T08:15:49Z</time>
      </trkpt>
      <trkpt lat="44.15607" lon="4.69458">
        <ele>128.9</ele>
        <time>2020-02-23T08:16:03Z</time>
      </trkpt>
      <trkpt lat="44.15621" lon="4.69474">
        <ele>128.2</ele>
        <time>2020-02-23T08:16:14Z</time>
      </trkpt>
      <trkpt lat="44.15628" lon="4.69492">
        <ele>127.8</ele>
        <time>2020-02-23T08:16:27Z</time>
      </trkpt>
      <trkpt lat="44.15639" lon="4.69488">
        <ele>127.9</ele>
        <time>2020-02-23T08:16:55Z</time>
      </trkpt>
      <trkpt lat="44.15645" lon="4.6948">
        <ele>128.1</ele>
        <time>2020-02-23T08:16:59Z</time>
      </trkpt>
      <trkpt lat="44.1565" lon="4.69456">
        <ele>128.7</ele>
        <time>2020-02-23T08:17:09Z</time>
      </trkpt>
      <trkpt lat="44.15654" lon="4.69431">
        <ele>129.8</ele>
        <time>2020-02-23T08:17:20Z</time>
      </trkpt>
      <trkpt lat="44.15667" lon="4.69412">
        <ele>131.6</ele>
        <time>2020-02-23T08:17:32Z</time>
      </trkpt>
      <trkpt lat="44.15684" lon="4.69403">
        <ele>134</ele>
        <time>2020-02-23T08:17:44Z</time>
      </trkpt>
      <trkpt lat="44.15699" lon="4.69391">
        <ele>136.5</ele>
        <time>2020-02-23T08:17:57Z</time>
      </trkpt>
      <trkpt lat="44.15715" lon="4.69378">
        <ele>139.1</ele>
        <time>2020-02-23T08:18:11Z</time>
      </trkpt>
      <trkpt lat="44.15731" lon="4.69362">
        <ele>142.1</ele>
        <time>2020-02-23T08:18:29Z</time>
      </trkpt>
      <trkpt lat="44.15733" lon="4.6936">
        <ele>142.5</ele>
        <time>2020-02-23T08:18:31Z</time>
      </trkpt>
      <trkpt lat="44.15736" lon="4.6935">
        <ele>143.4</ele>
        <time>2020-02-23T08:18:37Z</time>
      </trkpt>
      <trkpt lat="44.15743" lon="4.69338">
        <ele>144.8</ele>
        <time>2020-02-23T08:18:45Z</time>
      </trkpt>
      <trkpt lat="44.15744" lon="4.69335">
        <ele>145.3</ele>
        <time>2020-02-23T08:18:49Z</time>
      </trkpt>
      <trkpt lat="44.1577" lon="4.69305">
        <ele>150.7</ele>
        <time>2020-02-23T08:21:12Z</time>
      </trkpt>
      <trkpt lat="44.15787" lon="4.69292">
        <ele>152.3</ele>
        <time>2020-02-23T08:21:24Z</time>
      </trkpt>
      <trkpt lat="44.15789" lon="4.6929">
        <ele>152.5</ele>
        <time>2020-02-23T08:21:26Z</time>
      </trkpt>
      <trkpt lat="44.15795" lon="4.69283">
        <ele>153.3</ele>
        <time>2020-02-23T08:21:31Z</time>
      </trkpt>
      <trkpt lat="44.15803" lon="4.69276">
        <ele>154.1</ele>
        <time>2020-02-23T08:21:37Z</time>
      </trkpt>
      <trkpt lat="44.15822" lon="4.69272">
        <ele>154.6</ele>
        <time>2020-02-23T08:21:48Z</time>
      </trkpt>
      <trkpt lat="44.15834" lon="4.69263">
        <ele>155.2</ele>
        <time>2020-02-23T08:21:57Z</time>
      </trkpt>
      <trkpt lat="44.15839" lon="4.69253">
        <ele>155.9</ele>
        <time>2020-02-23T08:22:03Z</time>
      </trkpt>
      <trkpt lat="44.15852" lon="4.69237">
        <ele>156.8</ele>
        <time>2020-02-23T08:22:17Z</time>
      </trkpt>
      <trkpt lat="44.15869" lon="4.69227">
        <ele>157.7</ele>
        <time>2020-02-23T08:22:30Z</time>
      </trkpt>
      <trkpt lat="44.15887" lon="4.6922">
        <ele>157.9</ele>
        <time>2020-02-23T08:22:41Z</time>
      </trkpt>
      <trkpt lat="44.15897" lon="4.69221">
        <ele>157.8</ele>
        <time>2020-02-23T08:22:47Z</time>
      </trkpt>
      <trkpt lat="44.15899" lon="4.69223">
        <ele>157.9</ele>
        <time>2020-02-23T08:22:51Z</time>
      </trkpt>
      <trkpt lat="44.15915" lon="4.69233">
        <ele>157.4</ele>
        <time>2020-02-23T08:24:39Z</time>
      </trkpt>
      <trkpt lat="44.15932" lon="4.69241">
        <ele>157</ele>
        <time>2020-02-23T08:24:48Z</time>
      </trkpt>
      <trkpt lat="44.1595" lon="4.6925">
        <ele>156.2</ele>
        <time>2020-02-23T08:24:56Z</time>
      </trkpt>
      <trkpt lat="44.15968" lon="4.69258">
        <ele>155</ele>
        <time>2020-02-23T08:25:01Z</time>
      </trkpt>
      <trkpt lat="44.15984" lon="4.69269">
        <ele>153.2</ele>
        <time>2020-02-23T08:25:05Z</time>
      </trkpt>
      <trkpt lat="44.16002" lon="4.69276">
        <ele>150.4</ele>
        <time>2020-02-23T08:25:10Z</time>
      </trkpt>
      <trkpt lat="44.16021" lon="4.69282">
        <ele>146.9</ele>
        <time>2020-02-23T08:25:17Z</time>
      </trkpt>
      <trkpt lat="44.16039" lon="4.69287">
        <ele>142.9</ele>
        <time>2020-02-23T08:25:22Z</time>
      </trkpt>
      <trkpt lat="44.16058" lon="4.69296">
        <ele>139.4</ele>
        <time>2020-02-23T08:25:28Z</time>
      </trkpt>
      <trkpt lat="44.16077" lon="4.69303">
        <ele>136.4</ele>
        <time>2020-02-23T08:25:35Z</time>
      </trkpt>
      <trkpt lat="44.16095" lon="4.6931">
        <ele>133.7</ele>
        <time>2020-02-23T08:25:43Z</time>
      </trkpt>
      <trkpt lat="44.16111" lon="4.69315">
        <ele>132.4</ele>
        <time>2020-02-23T08:25:53Z</time>
      </trkpt>
      <trkpt lat="44.16129" lon="4.69311">
        <ele>130.4</ele>
        <time>2020-02-23T08:26:00Z</time>
      </trkpt>
      <trkpt lat="44.16142" lon="4.69327">
        <ele>129.2</ele>
        <time>2020-02-23T08:26:11Z</time>
      </trkpt>
      <trkpt lat="44.1616" lon="4.69335">
        <ele>126.7</ele>
        <time>2020-02-23T08:26:20Z</time>
      </trkpt>
      <trkpt lat="44.16177" lon="4.69344">
        <ele>124.1</ele>
        <time>2020-02-23T08:26:28Z</time>
      </trkpt>
      <trkpt lat="44.16181" lon="4.69346">
        <ele>123.6</ele>
        <time>2020-02-23T08:26:33Z</time>
      </trkpt>
      <trkpt lat="44.16182" lon="4.69376">
        <ele>124.4</ele>
        <time>2020-02-23T08:32:06Z</time>
      </trkpt>
      <trkpt lat="44.16166" lon="4.69388">
        <ele>127.6</ele>
        <time>2020-02-23T08:32:19Z</time>
      </trkpt>
      <trkpt lat="44.16152" lon="4.69405">
        <ele>130.8</ele>
        <time>2020-02-23T08:32:38Z</time>
      </trkpt>
      <trkpt lat="44.16138" lon="4.69421">
        <ele>134.5</ele>
        <time>2020-02-23T08:32:56Z</time>
      </trkpt>
      <trkpt lat="44.16124" lon="4.69439">
        <ele>137.5</ele>
        <time>2020-02-23T08:33:14Z</time>
      </trkpt>
      <trkpt lat="44.1611" lon="4.69457">
        <ele>140.1</ele>
        <time>2020-02-23T08:33:31Z</time>
      </trkpt>
      <trkpt lat="44.16096" lon="4.69474">
        <ele>143.4</ele>
        <time>2020-02-23T08:33:48Z</time>
      </trkpt>
      <trkpt lat="44.16079" lon="4.69487">
        <ele>147.3</ele>
        <time>2020-02-23T08:34:02Z</time>
      </trkpt>
      <trkpt lat="44.16066" lon="4.69506">
        <ele>150.5</ele>
        <time>2020-02-23T08:34:16Z</time>
      </trkpt>
      <trkpt lat="44.16051" lon="4.69523">
        <ele>154</ele>
        <time>2020-02-23T08:34:30Z</time>
      </trkpt>
      <trkpt lat="44.16037" lon="4.69542">
        <ele>158.2</ele>
        <time>2020-02-23T08:34:43Z</time>
      </trkpt>
      <trkpt lat="44.16023" lon="4.69559">
        <ele>161.1</ele>
        <time>2020-02-23T08:34:55Z</time>
      </trkpt>
      <trkpt lat="44.16009" lon="4.69575">
        <ele>163.5</ele>
        <time>2020-02-23T08:35:08Z</time>
      </trkpt>
      <trkpt lat="44.15994" lon="4.69591">
        <ele>166</ele>
        <time>2020-02-23T08:35:21Z</time>
      </trkpt>
      <trkpt lat="44.1598" lon="4.69608">
        <ele>167.9</ele>
        <time>2020-02-23T08:35:33Z</time>
      </trkpt>
      <trkpt lat="44.15966" lon="4.69627">
        <ele>170</ele>
        <time>2020-02-23T08:35:44Z</time>
      </trkpt>
      <trkpt lat="44.15953" lon="4.69644">
        <ele>170.8</ele>
        <time>2020-02-23T08:35:53Z</time>
      </trkpt>
      <trkpt lat="44.15938" lon="4.69662">
        <ele>171.5</ele>
        <time>2020-02-23T08:36:02Z</time>
      </trkpt>
      <trkpt lat="44.15923" lon="4.69679">
        <ele>172</ele>
        <time>2020-02-23T08:36:11Z</time>
      </trkpt>
      <trkpt lat="44.15907" lon="4.69692">
        <ele>173.1</ele>
        <time>2020-02-23T08:36:21Z</time>
      </trkpt>
      <trkpt lat="44.15892" lon="4.69708">
        <ele>174.5</ele>
        <time>2020-02-23T08:36:33Z</time>
      </trkpt>
      <trkpt lat="44.15878" lon="4.69725">
        <ele>175.5</ele>
        <time>2020-02-23T08:36:45Z</time>
      </trkpt>
      <trkpt lat="44.15866" lon="4.69745">
        <ele>176.3</ele>
        <time>2020-02-23T08:36:58Z</time>
      </trkpt>
      <trkpt lat="44.15852" lon="4.69762">
        <ele>177.7</ele>
        <time>2020-02-23T08:37:10Z</time>
      </trkpt>
      <trkpt lat="44.15838" lon="4.6978">
        <ele>179.2</ele>
        <time>2020-02-23T08:37:22Z</time>
      </trkpt>
      <trkpt lat="44.15824" lon="4.69798">
        <ele>180.4</ele>
        <time>2020-02-23T08:37:34Z</time>
      </trkpt>
      <trkpt lat="44.15808" lon="4.69815">
        <ele>181.3</ele>
        <time>2020-02-23T08:37:46Z</time>
      </trkpt>
      <trkpt lat="44.15795" lon="4.69834">
        <ele>182.5</ele>
        <time>2020-02-23T08:37:58Z</time>
      </trkpt>
      <trkpt lat="44.15781" lon="4.69852">
        <ele>184.1</ele>
        <time>2020-02-23T08:38:10Z</time>
      </trkpt>
      <trkpt lat="44.15766" lon="4.69867">
        <ele>186</ele>
        <time>2020-02-23T08:38:22Z</time>
      </trkpt>
      <trkpt lat="44.15751" lon="4.69885">
        <ele>188.1</ele>
        <time>2020-02-23T08:38:35Z</time>
      </trkpt>
      <trkpt lat="44.15738" lon="4.69903">
        <ele>190.2</ele>
        <time>2020-02-23T08:38:48Z</time>
      </trkpt>
      <trkpt lat="44.15724" lon="4.6992">
        <ele>192.2</ele>
        <time>2020-02-23T08:39:01Z</time>
      </trkpt>
      <trkpt lat="44.15709" lon="4.69935">
        <ele>194.1</ele>
        <time>2020-02-23T08:39:14Z</time>
      </trkpt>
      <trkpt lat="44.15694" lon="4.69952">
        <ele>196.2</ele>
        <time>2020-02-23T08:39:27Z</time>
      </trkpt>
      <trkpt lat="44.15681" lon="4.69969">
        <ele>199.1</ele>
        <time>2020-02-23T08:39:39Z</time>
      </trkpt>
      <trkpt lat="44.15666" lon="4.69984">
        <ele>202.2</ele>
        <time>2020-02-23T08:39:51Z</time>
      </trkpt>
      <trkpt lat="44.15651" lon="4.69999">
        <ele>205.2</ele>
        <time>2020-02-23T08:40:02Z</time>
      </trkpt>
      <trkpt lat="44.15637" lon="4.70018">
        <ele>207.6</ele>
        <time>2020-02-23T08:40:12Z</time>
      </trkpt>
      <trkpt lat="44.15624" lon="4.70037">
        <ele>207.8</ele>
        <time>2020-02-23T08:40:21Z</time>
      </trkpt>
      <trkpt lat="44.1561" lon="4.70058">
        <ele>207</ele>
        <time>2020-02-23T08:40:29Z</time>
      </trkpt>
      <trkpt lat="44.156" lon="4.70071">
        <ele>206.4</ele>
        <time>2020-02-23T08:40:38Z</time>
      </trkpt>
      <trkpt lat="44.15596" lon="4.70078">
        <ele>206.4</ele>
        <time>2020-02-23T08:43:03Z</time>
      </trkpt>
      <trkpt lat="44.15579" lon="4.70097">
        <ele>206.3</ele>
        <time>2020-02-23T08:43:08Z</time>
      </trkpt>
      <trkpt lat="44.15563" lon="4.70115">
        <ele>205.9</ele>
        <time>2020-02-23T08:43:11Z</time>
      </trkpt>
      <trkpt lat="44.15547" lon="4.70138">
        <ele>203.9</ele>
        <time>2020-02-23T08:43:14Z</time>
      </trkpt>
      <trkpt lat="44.15533" lon="4.70164">
        <ele>201</ele>
        <time>2020-02-23T08:43:17Z</time>
      </trkpt>
      <trkpt lat="44.15525" lon="4.70185">
        <ele>198</ele>
        <time>2020-02-23T08:43:20Z</time>
      </trkpt>
      <trkpt lat="44.15524" lon="4.70214">
        <ele>196.9</ele>
        <time>2020-02-23T08:43:25Z</time>
      </trkpt>
      <trkpt lat="44.15533" lon="4.70241">
        <ele>198</ele>
        <time>2020-02-23T08:43:31Z</time>
      </trkpt>
      <trkpt lat="44.15538" lon="4.70259">
        <ele>199</ele>
        <time>2020-02-23T08:43:36Z</time>
      </trkpt>
      <trkpt lat="44.15537" lon="4.70268">
        <ele>198.9</ele>
        <time>2020-02-23T08:43:40Z</time>
      </trkpt>
      <trkpt lat="44.15538" lon="4.7027">
        <ele>198.9</ele>
        <time>2020-02-23T08:43:44Z</time>
      </trkpt>
      <trkpt lat="44.1552" lon="4.70276">
        <ele>194.5</ele>
        <time>2020-02-23T08:45:46Z</time>
      </trkpt>
      <trkpt lat="44.15514" lon="4.7027">
        <ele>192.7</ele>
        <time>2020-02-23T08:45:54Z</time>
      </trkpt>
      <trkpt lat="44.15508" lon="4.70264">
        <ele>190.9</ele>
        <time>2020-02-23T08:46:03Z</time>
      </trkpt>
      <trkpt lat="44.15466" lon="4.70256">
        <ele>176.4</ele>
        <time>2020-02-23T08:48:31Z</time>
      </trkpt>
      <trkpt lat="44.15454" lon="4.70275">
        <ele>174.4</ele>
        <time>2020-02-23T08:48:37Z</time>
      </trkpt>
      <trkpt lat="44.1544" lon="4.70277">
        <ele>168.8</ele>
        <time>2020-02-23T08:48:40Z</time>
      </trkpt>
      <trkpt lat="44.1542" lon="4.70281">
        <ele>163.1</ele>
        <time>2020-02-23T08:48:43Z</time>
      </trkpt>
      <trkpt lat="44.15408" lon="4.70287">
        <ele>159.4</ele>
        <time>2020-02-23T08:48:45Z</time>
      </trkpt>
      <trkpt lat="44.15391" lon="4.70295">
        <ele>155.5</ele>
        <time>2020-02-23T08:48:48Z</time>
      </trkpt>
      <trkpt lat="44.15372" lon="4.70306">
        <ele>152.6</ele>
        <time>2020-02-23T08:48:52Z</time>
      </trkpt>
      <trkpt lat="44.15351" lon="4.70317">
        <ele>145.8</ele>
        <time>2020-02-23T08:48:57Z</time>
      </trkpt>
      <trkpt lat="44.15332" lon="4.70327">
        <ele>140.1</ele>
        <time>2020-02-23T08:49:02Z</time>
      </trkpt>
      <trkpt lat="44.15317" lon="4.70338">
        <ele>135.1</ele>
        <time>2020-02-23T08:49:11Z</time>
      </trkpt>
      <trkpt lat="44.15313" lon="4.70344">
        <ele>135.6</ele>
        <time>2020-02-23T08:49:24Z</time>
      </trkpt>
      <trkpt lat="44.15302" lon="4.70364">
        <ele>132.2</ele>
        <time>2020-02-23T08:49:32Z</time>
      </trkpt>
      <trkpt lat="44.15289" lon="4.7039">
        <ele>131.8</ele>
        <time>2020-02-23T08:49:38Z</time>
      </trkpt>
      <trkpt lat="44.15286" lon="4.70395">
        <ele>131.5</ele>
        <time>2020-02-23T08:49:39Z</time>
      </trkpt>
      <trkpt lat="44.15279" lon="4.70403">
        <ele>130.3</ele>
        <time>2020-02-23T08:49:41Z</time>
      </trkpt>
      <trkpt lat="44.15264" lon="4.70418">
        <ele>127</ele>
        <time>2020-02-23T08:49:46Z</time>
      </trkpt>
      <trkpt lat="44.15256" lon="4.70441">
        <ele>130</ele>
        <time>2020-02-23T08:49:53Z</time>
      </trkpt>
      <trkpt lat="44.15256" lon="4.70445">
        <ele>129.8</ele>
        <time>2020-02-23T08:49:55Z</time>
      </trkpt>
      <trkpt lat="44.15256" lon="4.70448">
        <ele>130.9</ele>
        <time>2020-02-23T08:49:58Z</time>
      </trkpt>
      <trkpt lat="44.15254" lon="4.70458">
        <ele>133</ele>
        <time>2020-02-23T08:50:10Z</time>
      </trkpt>
      <trkpt lat="44.15248" lon="4.70483">
        <ele>136.3</ele>
        <time>2020-02-23T08:50:20Z</time>
      </trkpt>
      <trkpt lat="44.15246" lon="4.70502">
        <ele>138.3</ele>
        <time>2020-02-23T08:50:30Z</time>
      </trkpt>
      <trkpt lat="44.15236" lon="4.70521">
        <ele>138</ele>
        <time>2020-02-23T08:52:29Z</time>
      </trkpt>
      <trkpt lat="44.15231" lon="4.70545">
        <ele>138.5</ele>
        <time>2020-02-23T08:52:36Z</time>
      </trkpt>
      <trkpt lat="44.15229" lon="4.70556">
        <ele>139.6</ele>
        <time>2020-02-23T08:52:39Z</time>
      </trkpt>
      <trkpt lat="44.15223" lon="4.7058">
        <ele>138.9</ele>
        <time>2020-02-23T08:52:46Z</time>
      </trkpt>
      <trkpt lat="44.15222" lon="4.7059">
        <ele>136.3</ele>
        <time>2020-02-23T08:52:49Z</time>
      </trkpt>
      <trkpt lat="44.1521" lon="4.70611">
        <ele>134.1</ele>
        <time>2020-02-23T08:52:55Z</time>
      </trkpt>
      <trkpt lat="44.15204" lon="4.70636">
        <ele>130.9</ele>
        <time>2020-02-23T08:53:01Z</time>
      </trkpt>
      <trkpt lat="44.15194" lon="4.70659">
        <ele>124.9</ele>
        <time>2020-02-23T08:53:06Z</time>
      </trkpt>
      <trkpt lat="44.15189" lon="4.7066">
        <ele>123.5</ele>
        <time>2020-02-23T08:53:07Z</time>
      </trkpt>
      <trkpt lat="44.15185" lon="4.70662">
        <ele>121.9</ele>
        <time>2020-02-23T08:53:08Z</time>
      </trkpt>
      <trkpt lat="44.15169" lon="4.70653">
        <ele>117.9</ele>
        <time>2020-02-23T08:53:12Z</time>
      </trkpt>
      <trkpt lat="44.1515" lon="4.70661">
        <ele>114.1</ele>
        <time>2020-02-23T08:53:16Z</time>
      </trkpt>
      <trkpt lat="44.15136" lon="4.70687">
        <ele>110.8</ele>
        <time>2020-02-23T08:53:20Z</time>
      </trkpt>
      <trkpt lat="44.15133" lon="4.70694">
        <ele>110.1</ele>
        <time>2020-02-23T08:53:21Z</time>
      </trkpt>
      <trkpt lat="44.15127" lon="4.70706">
        <ele>108.5</ele>
        <time>2020-02-23T08:53:23Z</time>
      </trkpt>
      <trkpt lat="44.1511" lon="4.70717">
        <ele>106.9</ele>
        <time>2020-02-23T08:53:30Z</time>
      </trkpt>
      <trkpt lat="44.15091" lon="4.70722">
        <ele>105.3</ele>
        <time>2020-02-23T08:53:36Z</time>
      </trkpt>
      <trkpt lat="44.1509" lon="4.70727">
        <ele>105.3</ele>
        <time>2020-02-23T08:53:38Z</time>
      </trkpt>
      <trkpt lat="44.15097" lon="4.70735">
        <ele>105.1</ele>
        <time>2020-02-23T08:53:43Z</time>
      </trkpt>
      <trkpt lat="44.15114" lon="4.70744">
        <ele>104.4</ele>
        <time>2020-02-23T08:53:55Z</time>
      </trkpt>
      <trkpt lat="44.15134" lon="4.70757">
        <ele>103.5</ele>
        <time>2020-02-23T08:54:05Z</time>
      </trkpt>
      <trkpt lat="44.1515" lon="4.70764">
        <ele>103</ele>
        <time>2020-02-23T08:54:08Z</time>
      </trkpt>
      <trkpt lat="44.15168" lon="4.70778">
        <ele>102.4</ele>
        <time>2020-02-23T08:54:11Z</time>
      </trkpt>
      <trkpt lat="44.15187" lon="4.70787">
        <ele>102.1</ele>
        <time>2020-02-23T08:54:14Z</time>
      </trkpt>
      <trkpt lat="44.15194" lon="4.70791">
        <ele>102</ele>
        <time>2020-02-23T08:54:15Z</time>
      </trkpt>
      <trkpt lat="44.15211" lon="4.7081">
        <ele>101.6</ele>
        <time>2020-02-23T08:54:18Z</time>
      </trkpt>
      <trkpt lat="44.15216" lon="4.70817">
        <ele>101.4</ele>
        <time>2020-02-23T08:54:19Z</time>
      </trkpt>
      <trkpt lat="44.15232" lon="4.70836">
        <ele>101</ele>
        <time>2020-02-23T08:54:22Z</time>
      </trkpt>
      <trkpt lat="44.15238" lon="4.70841">
        <ele>100.9</ele>
        <time>2020-02-23T08:54:23Z</time>
      </trkpt>
      <trkpt lat="44.15258" lon="4.70851">
        <ele>100.4</ele>
        <time>2020-02-23T08:54:26Z</time>
      </trkpt>
      <trkpt lat="44.15277" lon="4.70859">
        <ele>99.8</ele>
        <time>2020-02-23T08:54:29Z</time>
      </trkpt>
      <trkpt lat="44.15284" lon="4.70861">
        <ele>99.6</ele>
        <time>2020-02-23T08:54:30Z</time>
      </trkpt>
      <trkpt lat="44.15305" lon="4.70866">
        <ele>99</ele>
        <time>2020-02-23T08:54:33Z</time>
      </trkpt>
      <trkpt lat="44.15324" lon="4.70874">
        <ele>98.7</ele>
        <time>2020-02-23T08:54:36Z</time>
      </trkpt>
      <trkpt lat="44.15332" lon="4.70876">
        <ele>98.7</ele>
        <time>2020-02-23T08:54:37Z</time>
      </trkpt>
      <trkpt lat="44.15353" lon="4.7088">
        <ele>98.6</ele>
        <time>2020-02-23T08:54:40Z</time>
      </trkpt>
      <trkpt lat="44.15374" lon="4.70884">
        <ele>98.2</ele>
        <time>2020-02-23T08:54:43Z</time>
      </trkpt>
      <trkpt lat="44.15395" lon="4.70887">
        <ele>98.4</ele>
        <time>2020-02-23T08:54:47Z</time>
      </trkpt>
      <trkpt lat="44.15415" lon="4.7089">
        <ele>99.1</ele>
        <time>2020-02-23T08:54:52Z</time>
      </trkpt>
      <trkpt lat="44.15434" lon="4.7089">
        <ele>99.4</ele>
        <time>2020-02-23T08:54:57Z</time>
      </trkpt>
      <trkpt lat="44.15453" lon="4.70887">
        <ele>99.2</ele>
        <time>2020-02-23T08:55:02Z</time>
      </trkpt>
      <trkpt lat="44.15471" lon="4.70886">
        <ele>99.4</ele>
        <time>2020-02-23T08:55:07Z</time>
      </trkpt>
      <trkpt lat="44.15489" lon="4.70881">
        <ele>100</ele>
        <time>2020-02-23T08:55:17Z</time>
      </trkpt>
      <trkpt lat="44.15489" lon="4.70881">
        <ele>100</ele>
        <time>2020-02-23T08:55:18Z</time>
      </trkpt>
      <trkpt lat="44.15492" lon="4.70875">
        <ele>100.2</ele>
        <time>2020-02-23T08:55:56Z</time>
      </trkpt>
      <trkpt lat="44.1551" lon="4.70874">
        <ele>100.6</ele>
        <time>2020-02-23T08:56:04Z</time>
      </trkpt>
      <trkpt lat="44.15529" lon="4.70868">
        <ele>100.8</ele>
        <time>2020-02-23T08:56:13Z</time>
      </trkpt>
      <trkpt lat="44.15547" lon="4.70857">
        <ele>100.6</ele>
        <time>2020-02-23T08:56:20Z</time>
      </trkpt>
      <trkpt lat="44.15566" lon="4.70845">
        <ele>100.4</ele>
        <time>2020-02-23T08:56:27Z</time>
      </trkpt>
      <trkpt lat="44.15583" lon="4.70832">
        <ele>100.4</ele>
        <time>2020-02-23T08:56:33Z</time>
      </trkpt>
      <trkpt lat="44.15598" lon="4.70817">
        <ele>100.4</ele>
        <time>2020-02-23T08:56:39Z</time>
      </trkpt>
      <trkpt lat="44.15614" lon="4.70801">
        <ele>100.4</ele>
        <time>2020-02-23T08:56:46Z</time>
      </trkpt>
      <trkpt lat="44.15632" lon="4.70798">
        <ele>100.4</ele>
        <time>2020-02-23T08:56:52Z</time>
      </trkpt>
      <trkpt lat="44.15644" lon="4.70818">
        <ele>100.4</ele>
        <time>2020-02-23T08:56:58Z</time>
      </trkpt>
      <trkpt lat="44.15661" lon="4.70833">
        <ele>100.3</ele>
        <time>2020-02-23T08:57:03Z</time>
      </trkpt>
      <trkpt lat="44.15665" lon="4.70835">
        <ele>100.3</ele>
        <time>2020-02-23T08:57:04Z</time>
      </trkpt>
      <trkpt lat="44.15685" lon="4.70846">
        <ele>100.1</ele>
        <time>2020-02-23T08:57:09Z</time>
      </trkpt>
      <trkpt lat="44.15703" lon="4.7086">
        <ele>99.8</ele>
        <time>2020-02-23T08:57:14Z</time>
      </trkpt>
      <trkpt lat="44.15719" lon="4.70874">
        <ele>100.1</ele>
        <time>2020-02-23T08:57:19Z</time>
      </trkpt>
      <trkpt lat="44.15737" lon="4.70887">
        <ele>100.6</ele>
        <time>2020-02-23T08:57:24Z</time>
      </trkpt>
      <trkpt lat="44.15754" lon="4.70898">
        <ele>100.8</ele>
        <time>2020-02-23T08:57:29Z</time>
      </trkpt>
      <trkpt lat="44.15773" lon="4.7091">
        <ele>100.5</ele>
        <time>2020-02-23T08:57:35Z</time>
      </trkpt>
      <trkpt lat="44.15793" lon="4.70919">
        <ele>100.7</ele>
        <time>2020-02-23T08:57:41Z</time>
      </trkpt>
      <trkpt lat="44.15813" lon="4.70925">
        <ele>101.1</ele>
        <time>2020-02-23T08:57:47Z</time>
      </trkpt>
      <trkpt lat="44.15833" lon="4.70922">
        <ele>101.2</ele>
        <time>2020-02-23T08:57:53Z</time>
      </trkpt>
      <trkpt lat="44.15847" lon="4.70907">
        <ele>101</ele>
        <time>2020-02-23T08:57:59Z</time>
      </trkpt>
      <trkpt lat="44.15858" lon="4.70887">
        <ele>100.5</ele>
        <time>2020-02-23T08:58:05Z</time>
      </trkpt>
      <trkpt lat="44.15871" lon="4.70865">
        <ele>100.2</ele>
        <time>2020-02-23T08:58:12Z</time>
      </trkpt>
      <trkpt lat="44.15889" lon="4.70855">
        <ele>100.7</ele>
        <time>2020-02-23T08:58:19Z</time>
      </trkpt>
      <trkpt lat="44.15905" lon="4.70868">
        <ele>101.7</ele>
        <time>2020-02-23T08:58:25Z</time>
      </trkpt>
      <trkpt lat="44.15925" lon="4.70872">
        <ele>102.7</ele>
        <time>2020-02-23T08:58:32Z</time>
      </trkpt>
      <trkpt lat="44.15942" lon="4.70858">
        <ele>103.2</ele>
        <time>2020-02-23T08:58:39Z</time>
      </trkpt>
      <trkpt lat="44.15958" lon="4.70846">
        <ele>103.2</ele>
        <time>2020-02-23T08:58:44Z</time>
      </trkpt>
      <trkpt lat="44.15975" lon="4.70837">
        <ele>103.1</ele>
        <time>2020-02-23T08:58:48Z</time>
      </trkpt>
      <trkpt lat="44.15995" lon="4.70831">
        <ele>103.1</ele>
        <time>2020-02-23T08:58:53Z</time>
      </trkpt>
      <trkpt lat="44.16016" lon="4.70833">
        <ele>102.8</ele>
        <time>2020-02-23T08:58:59Z</time>
      </trkpt>
      <trkpt lat="44.16035" lon="4.70836">
        <ele>102.1</ele>
        <time>2020-02-23T08:59:04Z</time>
      </trkpt>
      <trkpt lat="44.16051" lon="4.70833">
        <ele>101.5</ele>
        <time>2020-02-23T08:59:08Z</time>
      </trkpt>
      <trkpt lat="44.16066" lon="4.70817">
        <ele>99</ele>
        <time>2020-02-23T08:59:12Z</time>
      </trkpt>
      <trkpt lat="44.16072" lon="4.70806">
        <ele>97.8</ele>
        <time>2020-02-23T08:59:14Z</time>
      </trkpt>
      <trkpt lat="44.16085" lon="4.70788">
        <ele>95.8</ele>
        <time>2020-02-23T08:59:18Z</time>
      </trkpt>
      <trkpt lat="44.16102" lon="4.70769">
        <ele>95.1</ele>
        <time>2020-02-23T08:59:23Z</time>
      </trkpt>
      <trkpt lat="44.1611" lon="4.70763">
        <ele>95</ele>
        <time>2020-02-23T08:59:25Z</time>
      </trkpt>
      <trkpt lat="44.16127" lon="4.70757">
        <ele>94.6</ele>
        <time>2020-02-23T08:59:29Z</time>
      </trkpt>
      <trkpt lat="44.16148" lon="4.7075">
        <ele>93.8</ele>
        <time>2020-02-23T08:59:34Z</time>
      </trkpt>
      <trkpt lat="44.16152" lon="4.70748">
        <ele>93.6</ele>
        <time>2020-02-23T08:59:35Z</time>
      </trkpt>
      <trkpt lat="44.16167" lon="4.70728">
        <ele>93</ele>
        <time>2020-02-23T08:59:40Z</time>
      </trkpt>
      <trkpt lat="44.16181" lon="4.70709">
        <ele>92.5</ele>
        <time>2020-02-23T08:59:45Z</time>
      </trkpt>
      <trkpt lat="44.16195" lon="4.7069">
        <ele>92.1</ele>
        <time>2020-02-23T08:59:50Z</time>
      </trkpt>
      <trkpt lat="44.16208" lon="4.70666">
        <ele>91.8</ele>
        <time>2020-02-23T08:59:55Z</time>
      </trkpt>
      <trkpt lat="44.16213" lon="4.70641">
        <ele>89.8</ele>
        <time>2020-02-23T09:00:00Z</time>
      </trkpt>
      <trkpt lat="44.16204" lon="4.70617">
        <ele>88.1</ele>
        <time>2020-02-23T09:00:04Z</time>
      </trkpt>
      <trkpt lat="44.16195" lon="4.70594">
        <ele>87.4</ele>
        <time>2020-02-23T09:00:07Z</time>
      </trkpt>
      <trkpt lat="44.16193" lon="4.70585">
        <ele>87.6</ele>
        <time>2020-02-23T09:00:08Z</time>
      </trkpt>
      <trkpt lat="44.16194" lon="4.70558">
        <ele>88.7</ele>
        <time>2020-02-23T09:00:11Z</time>
      </trkpt>
      <trkpt lat="44.16197" lon="4.70538">
        <ele>89.7</ele>
        <time>2020-02-23T09:00:14Z</time>
      </trkpt>
      <trkpt lat="44.16196" lon="4.7051">
        <ele>91.3</ele>
        <time>2020-02-23T09:00:19Z</time>
      </trkpt>
      <trkpt lat="44.16193" lon="4.70484">
        <ele>92.8</ele>
        <time>2020-02-23T09:00:25Z</time>
      </trkpt>
      <trkpt lat="44.1619" lon="4.70458">
        <ele>94</ele>
        <time>2020-02-23T09:00:32Z</time>
      </trkpt>
      <trkpt lat="44.16192" lon="4.7043">
        <ele>94.7</ele>
        <time>2020-02-23T09:00:40Z</time>
      </trkpt>
      <trkpt lat="44.16193" lon="4.70402">
        <ele>95.3</ele>
        <time>2020-02-23T09:00:47Z</time>
      </trkpt>
      <trkpt lat="44.16191" lon="4.70377">
        <ele>95.7</ele>
        <time>2020-02-23T09:00:53Z</time>
      </trkpt>
      <trkpt lat="44.1619" lon="4.7035">
        <ele>96.3</ele>
        <time>2020-02-23T09:01:00Z</time>
      </trkpt>
      <trkpt lat="44.16187" lon="4.70323">
        <ele>97.2</ele>
        <time>2020-02-23T09:01:06Z</time>
      </trkpt>
      <trkpt lat="44.16181" lon="4.70296">
        <ele>98.2</ele>
        <time>2020-02-23T09:01:13Z</time>
      </trkpt>
      <trkpt lat="44.16178" lon="4.70267">
        <ele>98.7</ele>
        <time>2020-02-23T09:01:20Z</time>
      </trkpt>
      <trkpt lat="44.16179" lon="4.70242">
        <ele>99</ele>
        <time>2020-02-23T09:01:26Z</time>
      </trkpt>
      <trkpt lat="44.16183" lon="4.70218">
        <ele>99.9</ele>
        <time>2020-02-23T09:01:32Z</time>
      </trkpt>
      <trkpt lat="44.16181" lon="4.70189">
        <ele>101.6</ele>
        <time>2020-02-23T09:01:39Z</time>
      </trkpt>
      <trkpt lat="44.16178" lon="4.70164">
        <ele>104</ele>
        <time>2020-02-23T09:01:47Z</time>
      </trkpt>
      <trkpt lat="44.16172" lon="4.70138">
        <ele>106.9</ele>
        <time>2020-02-23T09:01:57Z</time>
      </trkpt>
      <trkpt lat="44.16164" lon="4.70114">
        <ele>109.6</ele>
        <time>2020-02-23T09:02:09Z</time>
      </trkpt>
      <trkpt lat="44.16155" lon="4.70092">
        <ele>112.2</ele>
        <time>2020-02-23T09:02:23Z</time>
      </trkpt>
      <trkpt lat="44.16142" lon="4.70074">
        <ele>114.6</ele>
        <time>2020-02-23T09:02:35Z</time>
      </trkpt>
      <trkpt lat="44.16126" lon="4.7006">
        <ele>116.8</ele>
        <time>2020-02-23T09:02:48Z</time>
      </trkpt>
      <trkpt lat="44.16108" lon="4.70048">
        <ele>119.1</ele>
        <time>2020-02-23T09:03:01Z</time>
      </trkpt>
      <trkpt lat="44.16091" lon="4.70037">
        <ele>121.5</ele>
        <time>2020-02-23T09:03:15Z</time>
      </trkpt>
      <trkpt lat="44.16079" lon="4.70018">
        <ele>124.1</ele>
        <time>2020-02-23T09:03:29Z</time>
      </trkpt>
      <trkpt lat="44.16082" lon="4.69993">
        <ele>126.4</ele>
        <time>2020-02-23T09:03:44Z</time>
      </trkpt>
      <trkpt lat="44.16085" lon="4.69967">
        <ele>128.9</ele>
        <time>2020-02-23T09:03:56Z</time>
      </trkpt>
      <trkpt lat="44.16075" lon="4.69944">
        <ele>131.4</ele>
        <time>2020-02-23T09:04:08Z</time>
      </trkpt>
      <trkpt lat="44.16064" lon="4.69923">
        <ele>134</ele>
        <time>2020-02-23T09:04:23Z</time>
      </trkpt>
      <trkpt lat="44.16058" lon="4.69912">
        <ele>135</ele>
        <time>2020-02-23T09:04:32Z</time>
      </trkpt>
      <trkpt lat="44.16053" lon="4.69887">
        <ele>137.4</ele>
        <time>2020-02-23T09:04:44Z</time>
      </trkpt>
      <trkpt lat="44.16046" lon="4.69863">
        <ele>139.3</ele>
        <time>2020-02-23T09:04:57Z</time>
      </trkpt>
      <trkpt lat="44.16039" lon="4.6984">
        <ele>141.6</ele>
        <time>2020-02-23T09:05:10Z</time>
      </trkpt>
      <trkpt lat="44.16037" lon="4.69815">
        <ele>144.5</ele>
        <time>2020-02-23T09:05:22Z</time>
      </trkpt>
      <trkpt lat="44.16042" lon="4.69789">
        <ele>147.7</ele>
        <time>2020-02-23T09:05:36Z</time>
      </trkpt>
      <trkpt lat="44.16031" lon="4.69769">
        <ele>151</ele>
        <time>2020-02-23T09:05:53Z</time>
      </trkpt>
      <trkpt lat="44.16021" lon="4.69757">
        <ele>153.3</ele>
        <time>2020-02-23T09:06:04Z</time>
      </trkpt>
      <trkpt lat="44.1602" lon="4.69755">
        <ele>153.7</ele>
        <time>2020-02-23T09:06:06Z</time>
      </trkpt>
      <trkpt lat="44.16013" lon="4.69749">
        <ele>154.9</ele>
        <time>2020-02-23T09:06:13Z</time>
      </trkpt>
      <trkpt lat="44.15998" lon="4.69734">
        <ele>158.2</ele>
        <time>2020-02-23T09:06:31Z</time>
      </trkpt>
      <trkpt lat="44.15984" lon="4.69719">
        <ele>161.5</ele>
        <time>2020-02-23T09:06:48Z</time>
      </trkpt>
      <trkpt lat="44.15967" lon="4.69707">
        <ele>164.4</ele>
        <time>2020-02-23T09:07:03Z</time>
      </trkpt>
      <trkpt lat="44.15952" lon="4.69692">
        <ele>167.1</ele>
        <time>2020-02-23T09:07:19Z</time>
      </trkpt>
      <trkpt lat="44.1594" lon="4.69673">
        <ele>169.3</ele>
        <time>2020-02-23T09:07:36Z</time>
      </trkpt>
      <trkpt lat="44.15931" lon="4.6967">
        <ele>170.1</ele>
        <time>2020-02-23T09:07:45Z</time>
      </trkpt>
      <trkpt lat="44.15915" lon="4.69682">
        <ele>170.9</ele>
        <time>2020-02-23T09:07:57Z</time>
      </trkpt>
      <trkpt lat="44.15899" lon="4.69696">
        <ele>172</ele>
        <time>2020-02-23T09:08:11Z</time>
      </trkpt>
      <trkpt lat="44.15885" lon="4.69712">
        <ele>173.2</ele>
        <time>2020-02-23T09:08:26Z</time>
      </trkpt>
      <trkpt lat="44.15872" lon="4.69731">
        <ele>173.9</ele>
        <time>2020-02-23T09:08:42Z</time>
      </trkpt>
      <trkpt lat="44.1586" lon="4.69749">
        <ele>174.8</ele>
        <time>2020-02-23T09:08:57Z</time>
      </trkpt>
      <trkpt lat="44.15846" lon="4.69767">
        <ele>176.1</ele>
        <time>2020-02-23T09:09:12Z</time>
      </trkpt>
      <trkpt lat="44.15833" lon="4.69785">
        <ele>177.4</ele>
        <time>2020-02-23T09:09:24Z</time>
      </trkpt>
      <trkpt lat="44.15819" lon="4.69803">
        <ele>178.5</ele>
        <time>2020-02-23T09:09:36Z</time>
      </trkpt>
      <trkpt lat="44.15805" lon="4.69818">
        <ele>179.2</ele>
        <time>2020-02-23T09:09:46Z</time>
      </trkpt>
      <trkpt lat="44.15791" lon="4.69834">
        <ele>180.3</ele>
        <time>2020-02-23T09:09:57Z</time>
      </trkpt>
      <trkpt lat="44.15777" lon="4.69852">
        <ele>181.9</ele>
        <time>2020-02-23T09:10:10Z</time>
      </trkpt>
      <trkpt lat="44.15764" lon="4.6987">
        <ele>183.7</ele>
        <time>2020-02-23T09:10:22Z</time>
      </trkpt>
      <trkpt lat="44.15749" lon="4.69886">
        <ele>185.8</ele>
        <time>2020-02-23T09:10:35Z</time>
      </trkpt>
      <trkpt lat="44.15735" lon="4.69904">
        <ele>187.8</ele>
        <time>2020-02-23T09:10:49Z</time>
      </trkpt>
      <trkpt lat="44.1572" lon="4.6992">
        <ele>189.8</ele>
        <time>2020-02-23T09:11:05Z</time>
      </trkpt>
      <trkpt lat="44.15705" lon="4.69937">
        <ele>192</ele>
        <time>2020-02-23T09:11:21Z</time>
      </trkpt>
      <trkpt lat="44.15691" lon="4.69955">
        <ele>194.1</ele>
        <time>2020-02-23T09:11:34Z</time>
      </trkpt>
      <trkpt lat="44.15678" lon="4.69972">
        <ele>197</ele>
        <time>2020-02-23T09:11:46Z</time>
      </trkpt>
      <trkpt lat="44.15662" lon="4.69988">
        <ele>200.5</ele>
        <time>2020-02-23T09:11:58Z</time>
      </trkpt>
      <trkpt lat="44.15648" lon="4.70006">
        <ele>203.4</ele>
        <time>2020-02-23T09:12:10Z</time>
      </trkpt>
      <trkpt lat="44.15634" lon="4.70024">
        <ele>204.9</ele>
        <time>2020-02-23T09:12:19Z</time>
      </trkpt>
      <trkpt lat="44.1562" lon="4.70041">
        <ele>204.6</ele>
        <time>2020-02-23T09:12:27Z</time>
      </trkpt>
      <trkpt lat="44.15608" lon="4.70062">
        <ele>205.3</ele>
        <time>2020-02-23T09:12:34Z</time>
      </trkpt>
      <trkpt lat="44.15607" lon="4.7009">
        <ele>205.4</ele>
        <time>2020-02-23T09:12:42Z</time>
      </trkpt>
      <trkpt lat="44.15605" lon="4.70116">
        <ele>206.2</ele>
        <time>2020-02-23T09:12:49Z</time>
      </trkpt>
      <trkpt lat="44.15604" lon="4.70143">
        <ele>207.4</ele>
        <time>2020-02-23T09:12:56Z</time>
      </trkpt>
      <trkpt lat="44.15605" lon="4.70171">
        <ele>207.8</ele>
        <time>2020-02-23T09:13:04Z</time>
      </trkpt>
      <trkpt lat="44.15608" lon="4.70197">
        <ele>208</ele>
        <time>2020-02-23T09:13:11Z</time>
      </trkpt>
      <trkpt lat="44.15616" lon="4.7022">
        <ele>208.2</ele>
        <time>2020-02-23T09:13:17Z</time>
      </trkpt>
      <trkpt lat="44.15627" lon="4.70246">
        <ele>207.7</ele>
        <time>2020-02-23T09:13:23Z</time>
      </trkpt>
      <trkpt lat="44.15638" lon="4.70272">
        <ele>206.1</ele>
        <time>2020-02-23T09:13:28Z</time>
      </trkpt>
      <trkpt lat="44.15649" lon="4.70296">
        <ele>204.1</ele>
        <time>2020-02-23T09:13:32Z</time>
      </trkpt>
      <trkpt lat="44.15654" lon="4.70308">
        <ele>202.9</ele>
        <time>2020-02-23T09:13:34Z</time>
      </trkpt>
      <trkpt lat="44.15658" lon="4.70333">
        <ele>201.3</ele>
        <time>2020-02-23T09:13:38Z</time>
      </trkpt>
      <trkpt lat="44.15657" lon="4.70361">
        <ele>201.3</ele>
        <time>2020-02-23T09:13:44Z</time>
      </trkpt>
      <trkpt lat="44.15655" lon="4.70387">
        <ele>201.4</ele>
        <time>2020-02-23T09:13:50Z</time>
      </trkpt>
      <trkpt lat="44.15654" lon="4.70401">
        <ele>201.5</ele>
        <time>2020-02-23T09:13:57Z</time>
      </trkpt>
      <trkpt lat="44.15652" lon="4.70411">
        <ele>201.7</ele>
        <time>2020-02-23T09:17:15Z</time>
      </trkpt>
      <trkpt lat="44.15653" lon="4.70442">
        <ele>202.4</ele>
        <time>2020-02-23T09:17:20Z</time>
      </trkpt>
      <trkpt lat="44.15654" lon="4.70469">
        <ele>203.2</ele>
        <time>2020-02-23T09:17:23Z</time>
      </trkpt>
      <trkpt lat="44.15654" lon="4.70497">
        <ele>204.3</ele>
        <time>2020-02-23T09:17:27Z</time>
      </trkpt>
      <trkpt lat="44.15654" lon="4.70523">
        <ele>205.6</ele>
        <time>2020-02-23T09:17:34Z</time>
      </trkpt>
      <trkpt lat="44.15672" lon="4.7054">
        <ele>202.5</ele>
        <time>2020-02-23T09:17:40Z</time>
      </trkpt>
      <trkpt lat="44.15684" lon="4.7055">
        <ele>199.4</ele>
        <time>2020-02-23T09:17:43Z</time>
      </trkpt>
      <trkpt lat="44.15701" lon="4.70565">
        <ele>195.6</ele>
        <time>2020-02-23T09:17:47Z</time>
      </trkpt>
      <trkpt lat="44.15705" lon="4.70569">
        <ele>194.2</ele>
        <time>2020-02-23T09:17:48Z</time>
      </trkpt>
      <trkpt lat="44.15722" lon="4.70583">
        <ele>189.4</ele>
        <time>2020-02-23T09:17:52Z</time>
      </trkpt>
      <trkpt lat="44.15727" lon="4.70585">
        <ele>187.8</ele>
        <time>2020-02-23T09:17:53Z</time>
      </trkpt>
      <trkpt lat="44.15746" lon="4.70589">
        <ele>183.9</ele>
        <time>2020-02-23T09:17:58Z</time>
      </trkpt>
      <trkpt lat="44.15749" lon="4.7059">
        <ele>183.1</ele>
        <time>2020-02-23T09:17:59Z</time>
      </trkpt>
      <trkpt lat="44.15768" lon="4.70595">
        <ele>178</ele>
        <time>2020-02-23T09:18:06Z</time>
      </trkpt>
      <trkpt lat="44.15788" lon="4.70599">
        <ele>173.9</ele>
        <time>2020-02-23T09:18:13Z</time>
      </trkpt>
      <trkpt lat="44.15808" lon="4.70609">
        <ele>168.5</ele>
        <time>2020-02-23T09:18:18Z</time>
      </trkpt>
      <trkpt lat="44.15826" lon="4.7062">
        <ele>164.4</ele>
        <time>2020-02-23T09:18:23Z</time>
      </trkpt>
      <trkpt lat="44.15846" lon="4.70628">
        <ele>161.9</ele>
        <time>2020-02-23T09:18:30Z</time>
      </trkpt>
      <trkpt lat="44.15861" lon="4.70633">
        <ele>160.5</ele>
        <time>2020-02-23T09:18:33Z</time>
      </trkpt>
      <trkpt lat="44.15883" lon="4.70638">
        <ele>158.8</ele>
        <time>2020-02-23T09:18:37Z</time>
      </trkpt>
      <trkpt lat="44.15903" lon="4.70641">
        <ele>155.8</ele>
        <time>2020-02-23T09:18:41Z</time>
      </trkpt>
      <trkpt lat="44.15923" lon="4.7064">
        <ele>151.9</ele>
        <time>2020-02-23T09:18:47Z</time>
      </trkpt>
      <trkpt lat="44.15944" lon="4.70639">
        <ele>147.6</ele>
        <time>2020-02-23T09:18:52Z</time>
      </trkpt>
      <trkpt lat="44.15962" lon="4.70637">
        <ele>144.1</ele>
        <time>2020-02-23T09:18:57Z</time>
      </trkpt>
      <trkpt lat="44.15984" lon="4.70639">
        <ele>138.9</ele>
        <time>2020-02-23T09:19:03Z</time>
      </trkpt>
      <trkpt lat="44.16002" lon="4.70639">
        <ele>133.3</ele>
        <time>2020-02-23T09:19:07Z</time>
      </trkpt>
      <trkpt lat="44.16023" lon="4.70638">
        <ele>127</ele>
        <time>2020-02-23T09:19:12Z</time>
      </trkpt>
      <trkpt lat="44.16042" lon="4.70639">
        <ele>122</ele>
        <time>2020-02-23T09:19:16Z</time>
      </trkpt>
      <trkpt lat="44.16061" lon="4.70639">
        <ele>116.9</ele>
        <time>2020-02-23T09:19:20Z</time>
      </trkpt>
      <trkpt lat="44.16082" lon="4.70639">
        <ele>111.7</ele>
        <time>2020-02-23T09:19:25Z</time>
      </trkpt>
      <trkpt lat="44.16102" lon="4.70639">
        <ele>107.3</ele>
        <time>2020-02-23T09:19:30Z</time>
      </trkpt>
      <trkpt lat="44.16123" lon="4.70643">
        <ele>102.3</ele>
        <time>2020-02-23T09:19:35Z</time>
      </trkpt>
      <trkpt lat="44.16144" lon="4.70647">
        <ele>98.2</ele>
        <time>2020-02-23T09:19:40Z</time>
      </trkpt>
      <trkpt lat="44.16164" lon="4.70646">
        <ele>95.5</ele>
        <time>2020-02-23T09:19:45Z</time>
      </trkpt>
      <trkpt lat="44.16187" lon="4.70647">
        <ele>92.8</ele>
        <time>2020-02-23T09:19:50Z</time>
      </trkpt>
      <trkpt lat="44.16199" lon="4.70647">
        <ele>91.5</ele>
        <time>2020-02-23T09:19:52Z</time>
      </trkpt>
      <trkpt lat="44.16212" lon="4.70652">
        <ele>90.7</ele>
        <time>2020-02-23T09:19:56Z</time>
      </trkpt>
      <trkpt lat="44.16214" lon="4.70653">
        <ele>90.5</ele>
        <time>2020-02-23T09:20:00Z</time>
      </trkpt>
      <trkpt lat="44.16209" lon="4.70638">
        <ele>89.3</ele>
        <time>2020-02-23T09:22:07Z</time>
      </trkpt>
      <trkpt lat="44.16201" lon="4.70615">
        <ele>87.8</ele>
        <time>2020-02-23T09:22:13Z</time>
      </trkpt>
      <trkpt lat="44.16193" lon="4.70595">
        <ele>87.4</ele>
        <time>2020-02-23T09:22:17Z</time>
      </trkpt>
      <trkpt lat="44.16192" lon="4.70568">
        <ele>88.3</ele>
        <time>2020-02-23T09:22:21Z</time>
      </trkpt>
      <trkpt lat="44.16195" lon="4.70553">
        <ele>89</ele>
        <time>2020-02-23T09:22:24Z</time>
      </trkpt>
      <trkpt lat="44.162" lon="4.70527">
        <ele>90.3</ele>
        <time>2020-02-23T09:22:33Z</time>
      </trkpt>
      <trkpt lat="44.16197" lon="4.70501">
        <ele>91.8</ele>
        <time>2020-02-23T09:22:43Z</time>
      </trkpt>
      <trkpt lat="44.16192" lon="4.70474">
        <ele>93.3</ele>
        <time>2020-02-23T09:22:52Z</time>
      </trkpt>
      <trkpt lat="44.1619" lon="4.70447">
        <ele>94.3</ele>
        <time>2020-02-23T09:23:01Z</time>
      </trkpt>
      <trkpt lat="44.16189" lon="4.70422">
        <ele>94.9</ele>
        <time>2020-02-23T09:23:10Z</time>
      </trkpt>
      <trkpt lat="44.16187" lon="4.70397">
        <ele>95.4</ele>
        <time>2020-02-23T09:23:18Z</time>
      </trkpt>
      <trkpt lat="44.16186" lon="4.70371">
        <ele>95.8</ele>
        <time>2020-02-23T09:23:26Z</time>
      </trkpt>
      <trkpt lat="44.16184" lon="4.70342">
        <ele>96.4</ele>
        <time>2020-02-23T09:23:34Z</time>
      </trkpt>
      <trkpt lat="44.16181" lon="4.70315">
        <ele>97.3</ele>
        <time>2020-02-23T09:23:42Z</time>
      </trkpt>
      <trkpt lat="44.16176" lon="4.7029">
        <ele>98.1</ele>
        <time>2020-02-23T09:23:50Z</time>
      </trkpt>
      <trkpt lat="44.16175" lon="4.70265">
        <ele>98.6</ele>
        <time>2020-02-23T09:23:59Z</time>
      </trkpt>
      <trkpt lat="44.16178" lon="4.70239">
        <ele>99</ele>
        <time>2020-02-23T09:24:07Z</time>
      </trkpt>
      <trkpt lat="44.16179" lon="4.70211">
        <ele>99.8</ele>
        <time>2020-02-23T09:24:16Z</time>
      </trkpt>
      <trkpt lat="44.16178" lon="4.70185">
        <ele>101.1</ele>
        <time>2020-02-23T09:24:26Z</time>
      </trkpt>
      <trkpt lat="44.16175" lon="4.70158">
        <ele>103.5</ele>
        <time>2020-02-23T09:24:38Z</time>
      </trkpt>
      <trkpt lat="44.1617" lon="4.70132">
        <ele>106.3</ele>
        <time>2020-02-23T09:24:48Z</time>
      </trkpt>
      <trkpt lat="44.16162" lon="4.70108">
        <ele>109</ele>
        <time>2020-02-23T09:24:56Z</time>
      </trkpt>
      <trkpt lat="44.16151" lon="4.70088">
        <ele>111.5</ele>
        <time>2020-02-23T09:25:04Z</time>
      </trkpt>
      <trkpt lat="44.16137" lon="4.70071">
        <ele>113.9</ele>
        <time>2020-02-23T09:25:11Z</time>
      </trkpt>
      <trkpt lat="44.1612" lon="4.70058">
        <ele>116.2</ele>
        <time>2020-02-23T09:25:19Z</time>
      </trkpt>
      <trkpt lat="44.16102" lon="4.70048">
        <ele>118.4</ele>
        <time>2020-02-23T09:25:27Z</time>
      </trkpt>
      <trkpt lat="44.16093" lon="4.70042">
        <ele>119.6</ele>
        <time>2020-02-23T09:25:31Z</time>
      </trkpt>
      <trkpt lat="44.1608" lon="4.70025">
        <ele>121.7</ele>
        <time>2020-02-23T09:25:39Z</time>
      </trkpt>
      <trkpt lat="44.16083" lon="4.69998">
        <ele>124.3</ele>
        <time>2020-02-23T09:25:48Z</time>
      </trkpt>
      <trkpt lat="44.16086" lon="4.69974">
        <ele>126.6</ele>
        <time>2020-02-23T09:25:55Z</time>
      </trkpt>
      <trkpt lat="44.16077" lon="4.6995">
        <ele>129</ele>
        <time>2020-02-23T09:26:04Z</time>
      </trkpt>
      <trkpt lat="44.16065" lon="4.69931">
        <ele>131.4</ele>
        <time>2020-02-23T09:26:13Z</time>
      </trkpt>
      <trkpt lat="44.16056" lon="4.69909">
        <ele>133.8</ele>
        <time>2020-02-23T09:26:22Z</time>
      </trkpt>
      <trkpt lat="44.16051" lon="4.69883">
        <ele>136</ele>
        <time>2020-02-23T09:26:31Z</time>
      </trkpt>
      <trkpt lat="44.16042" lon="4.6986">
        <ele>138.1</ele>
        <time>2020-02-23T09:26:39Z</time>
      </trkpt>
      <trkpt lat="44.16037" lon="4.69836">
        <ele>139.9</ele>
        <time>2020-02-23T09:26:48Z</time>
      </trkpt>
      <trkpt lat="44.16039" lon="4.69811">
        <ele>142.5</ele>
        <time>2020-02-23T09:27:00Z</time>
      </trkpt>
      <trkpt lat="44.16047" lon="4.69792">
        <ele>144.9</ele>
        <time>2020-02-23T09:27:11Z</time>
      </trkpt>
      <trkpt lat="44.1605" lon="4.69788">
        <ele>145.6</ele>
        <time>2020-02-23T09:27:17Z</time>
      </trkpt>
      <trkpt lat="44.16055" lon="4.69795">
        <ele>146.7</ele>
        <time>2020-02-23T09:31:14Z</time>
      </trkpt>
      <trkpt lat="44.1607" lon="4.69811">
        <ele>145</ele>
        <time>2020-02-23T09:31:19Z</time>
      </trkpt>
      <trkpt lat="44.16086" lon="4.69826">
        <ele>143.8</ele>
        <time>2020-02-23T09:31:23Z</time>
      </trkpt>
      <trkpt lat="44.16091" lon="4.69829">
        <ele>143</ele>
        <time>2020-02-23T09:31:24Z</time>
      </trkpt>
      <trkpt lat="44.1611" lon="4.69836">
        <ele>141</ele>
        <time>2020-02-23T09:31:28Z</time>
      </trkpt>
      <trkpt lat="44.16128" lon="4.6983">
        <ele>139.2</ele>
        <time>2020-02-23T09:31:34Z</time>
      </trkpt>
      <trkpt lat="44.1613" lon="4.6984">
        <ele>138.8</ele>
        <time>2020-02-23T09:31:36Z</time>
      </trkpt>
      <trkpt lat="44.16136" lon="4.69866">
        <ele>137.3</ele>
        <time>2020-02-23T09:31:42Z</time>
      </trkpt>
      <trkpt lat="44.16144" lon="4.69876">
        <ele>135.7</ele>
        <time>2020-02-23T09:31:47Z</time>
      </trkpt>
      <trkpt lat="44.16146" lon="4.6989">
        <ele>135.1</ele>
        <time>2020-02-23T09:31:51Z</time>
      </trkpt>
      <trkpt lat="44.16155" lon="4.69915">
        <ele>133.9</ele>
        <time>2020-02-23T09:31:57Z</time>
      </trkpt>
      <trkpt lat="44.16166" lon="4.69925">
        <ele>132.6</ele>
        <time>2020-02-23T09:32:00Z</time>
      </trkpt>
      <trkpt lat="44.1618" lon="4.69944">
        <ele>131.3</ele>
        <time>2020-02-23T09:32:04Z</time>
      </trkpt>
      <trkpt lat="44.16185" lon="4.69948">
        <ele>130.9</ele>
        <time>2020-02-23T09:32:06Z</time>
      </trkpt>
      <trkpt lat="44.16202" lon="4.69959">
        <ele>129</ele>
        <time>2020-02-23T09:32:13Z</time>
      </trkpt>
      <trkpt lat="44.16221" lon="4.69961">
        <ele>127.2</ele>
        <time>2020-02-23T09:32:19Z</time>
      </trkpt>
      <trkpt lat="44.16238" lon="4.69963">
        <ele>126</ele>
        <time>2020-02-23T09:32:24Z</time>
      </trkpt>
      <trkpt lat="44.16253" lon="4.69971">
        <ele>125.2</ele>
        <time>2020-02-23T09:32:31Z</time>
      </trkpt>
      <trkpt lat="44.16261" lon="4.69979">
        <ele>124.8</ele>
        <time>2020-02-23T09:32:37Z</time>
      </trkpt>
      <trkpt lat="44.16269" lon="4.69985">
        <ele>124.1</ele>
        <time>2020-02-23T09:32:41Z</time>
      </trkpt>
      <trkpt lat="44.16276" lon="4.69967">
        <ele>121.8</ele>
        <time>2020-02-23T09:32:52Z</time>
      </trkpt>
      <trkpt lat="44.1629" lon="4.6995">
        <ele>117.7</ele>
        <time>2020-02-23T09:33:00Z</time>
      </trkpt>
      <trkpt lat="44.16292" lon="4.69948">
        <ele>116.5</ele>
        <time>2020-02-23T09:33:01Z</time>
      </trkpt>
      <trkpt lat="44.16297" lon="4.69939">
        <ele>114.2</ele>
        <time>2020-02-23T09:33:05Z</time>
      </trkpt>
      <trkpt lat="44.1631" lon="4.69926">
        <ele>110.9</ele>
        <time>2020-02-23T09:33:15Z</time>
      </trkpt>
      <trkpt lat="44.16321" lon="4.69901">
        <ele>108.2</ele>
        <time>2020-02-23T09:33:26Z</time>
      </trkpt>
      <trkpt lat="44.16325" lon="4.69873">
        <ele>106.3</ele>
        <time>2020-02-23T09:33:32Z</time>
      </trkpt>
      <trkpt lat="44.16329" lon="4.69848">
        <ele>105.7</ele>
        <time>2020-02-23T09:33:37Z</time>
      </trkpt>
      <trkpt lat="44.16333" lon="4.69822">
        <ele>105.9</ele>
        <time>2020-02-23T09:33:41Z</time>
      </trkpt>
      <trkpt lat="44.16334" lon="4.69801">
        <ele>106.6</ele>
        <time>2020-02-23T09:33:49Z</time>
      </trkpt>
      <trkpt lat="44.16339" lon="4.69798">
        <ele>106.6</ele>
        <time>2020-02-23T09:36:30Z</time>
      </trkpt>
      <trkpt lat="44.16357" lon="4.69807">
        <ele>105.6</ele>
        <time>2020-02-23T09:36:35Z</time>
      </trkpt>
      <trkpt lat="44.16371" lon="4.69816">
        <ele>104.8</ele>
        <time>2020-02-23T09:36:38Z</time>
      </trkpt>
      <trkpt lat="44.16384" lon="4.69824">
        <ele>104.3</ele>
        <time>2020-02-23T09:36:42Z</time>
      </trkpt>
      <trkpt lat="44.16403" lon="4.69829">
        <ele>103</ele>
        <time>2020-02-23T09:36:48Z</time>
      </trkpt>
      <trkpt lat="44.16421" lon="4.69841">
        <ele>100.6</ele>
        <time>2020-02-23T09:36:52Z</time>
      </trkpt>
      <trkpt lat="44.16436" lon="4.6985">
        <ele>98.5</ele>
        <time>2020-02-23T09:36:55Z</time>
      </trkpt>
      <trkpt lat="44.16456" lon="4.69853">
        <ele>96.3</ele>
        <time>2020-02-23T09:36:59Z</time>
      </trkpt>
      <trkpt lat="44.16473" lon="4.69857">
        <ele>93.7</ele>
        <time>2020-02-23T09:37:02Z</time>
      </trkpt>
      <trkpt lat="44.16494" lon="4.69858">
        <ele>90.6</ele>
        <time>2020-02-23T09:37:06Z</time>
      </trkpt>
      <trkpt lat="44.16512" lon="4.69856">
        <ele>88.6</ele>
        <time>2020-02-23T09:37:09Z</time>
      </trkpt>
      <trkpt lat="44.16532" lon="4.69858">
        <ele>86</ele>
        <time>2020-02-23T09:37:13Z</time>
      </trkpt>
      <trkpt lat="44.16551" lon="4.69859">
        <ele>83.8</ele>
        <time>2020-02-23T09:37:17Z</time>
      </trkpt>
      <trkpt lat="44.16569" lon="4.69853">
        <ele>81.6</ele>
        <time>2020-02-23T09:37:21Z</time>
      </trkpt>
      <trkpt lat="44.16588" lon="4.69853">
        <ele>79</ele>
        <time>2020-02-23T09:37:26Z</time>
      </trkpt>
      <trkpt lat="44.16608" lon="4.69858">
        <ele>76.7</ele>
        <time>2020-02-23T09:37:31Z</time>
      </trkpt>
      <trkpt lat="44.16626" lon="4.69845">
        <ele>74.8</ele>
        <time>2020-02-23T09:37:40Z</time>
      </trkpt>
      <trkpt lat="44.16636" lon="4.6982">
        <ele>74.5</ele>
        <time>2020-02-23T09:37:48Z</time>
      </trkpt>
      <trkpt lat="44.16642" lon="4.69794">
        <ele>75.1</ele>
        <time>2020-02-23T09:37:56Z</time>
      </trkpt>
      <trkpt lat="44.16641" lon="4.69793">
        <ele>75.3</ele>
        <time>2020-02-23T09:37:57Z</time>
      </trkpt>
      <trkpt lat="44.16623" lon="4.69783">
        <ele>76.9</ele>
        <time>2020-02-23T09:38:06Z</time>
      </trkpt>
      <trkpt lat="44.16606" lon="4.69774">
        <ele>78.5</ele>
        <time>2020-02-23T09:38:17Z</time>
      </trkpt>
      <trkpt lat="44.16605" lon="4.69751">
        <ele>79.3</ele>
        <time>2020-02-23T09:38:27Z</time>
      </trkpt>
      <trkpt lat="44.16607" lon="4.69743">
        <ele>79.3</ele>
        <time>2020-02-23T09:38:28Z</time>
      </trkpt>
      <trkpt lat="44.16614" lon="4.69719">
        <ele>78.4</ele>
        <time>2020-02-23T09:38:31Z</time>
      </trkpt>
      <trkpt lat="44.16623" lon="4.69693">
        <ele>77.8</ele>
        <time>2020-02-23T09:38:34Z</time>
      </trkpt>
      <trkpt lat="44.16627" lon="4.69684">
        <ele>77.3</ele>
        <time>2020-02-23T09:38:35Z</time>
      </trkpt>
      <trkpt lat="44.16642" lon="4.69668">
        <ele>76.5</ele>
        <time>2020-02-23T09:38:38Z</time>
      </trkpt>
      <trkpt lat="44.16652" lon="4.69656">
        <ele>76.2</ele>
        <time>2020-02-23T09:38:45Z</time>
      </trkpt>
      <trkpt lat="44.1665" lon="4.69655">
        <ele>76.3</ele>
        <time>2020-02-23T09:38:46Z</time>
      </trkpt>
      <trkpt lat="44.16633" lon="4.69643">
        <ele>77.4</ele>
        <time>2020-02-23T09:38:55Z</time>
      </trkpt>
      <trkpt lat="44.16622" lon="4.69624">
        <ele>78.4</ele>
        <time>2020-02-23T09:39:05Z</time>
      </trkpt>
      <trkpt lat="44.16622" lon="4.69597">
        <ele>78.7</ele>
        <time>2020-02-23T09:39:15Z</time>
      </trkpt>
      <trkpt lat="44.16621" lon="4.69575">
        <ele>79.2</ele>
        <time>2020-02-23T09:39:22Z</time>
      </trkpt>
      <trkpt lat="44.16624" lon="4.69548">
        <ele>79.6</ele>
        <time>2020-02-23T09:39:30Z</time>
      </trkpt>
      <trkpt lat="44.16628" lon="4.69522">
        <ele>79.8</ele>
        <time>2020-02-23T09:39:38Z</time>
      </trkpt>
      <trkpt lat="44.1663" lon="4.69496">
        <ele>79.9</ele>
        <time>2020-02-23T09:39:48Z</time>
      </trkpt>
      <trkpt lat="44.1663" lon="4.69492">
        <ele>79.9</ele>
        <time>2020-02-23T09:39:50Z</time>
      </trkpt>
      <trkpt lat="44.16633" lon="4.69474">
        <ele>80</ele>
        <time>2020-02-23T09:39:56Z</time>
      </trkpt>
      <trkpt lat="44.16635" lon="4.69448">
        <ele>80.2</ele>
        <time>2020-02-23T09:40:04Z</time>
      </trkpt>
      <trkpt lat="44.16637" lon="4.69423">
        <ele>80.5</ele>
        <time>2020-02-23T09:40:13Z</time>
      </trkpt>
      <trkpt lat="44.16639" lon="4.69398">
        <ele>79.7</ele>
        <time>2020-02-23T09:40:22Z</time>
      </trkpt>
      <trkpt lat="44.16646" lon="4.69374">
        <ele>77.6</ele>
        <time>2020-02-23T09:40:30Z</time>
      </trkpt>
      <trkpt lat="44.16646" lon="4.69349">
        <ele>77</ele>
        <time>2020-02-23T09:40:40Z</time>
      </trkpt>
      <trkpt lat="44.16642" lon="4.69325">
        <ele>77.3</ele>
        <time>2020-02-23T09:40:54Z</time>
      </trkpt>
      <trkpt lat="44.16641" lon="4.69298">
        <ele>78</ele>
        <time>2020-02-23T09:41:05Z</time>
      </trkpt>
      <trkpt lat="44.16637" lon="4.69273">
        <ele>78.6</ele>
        <time>2020-02-23T09:41:14Z</time>
      </trkpt>
      <trkpt lat="44.16632" lon="4.69248">
        <ele>79</ele>
        <time>2020-02-23T09:41:23Z</time>
      </trkpt>
      <trkpt lat="44.16629" lon="4.69223">
        <ele>79.5</ele>
        <time>2020-02-23T09:41:32Z</time>
      </trkpt>
      <trkpt lat="44.16624" lon="4.69199">
        <ele>80.6</ele>
        <time>2020-02-23T09:41:41Z</time>
      </trkpt>
      <trkpt lat="44.16621" lon="4.69174">
        <ele>81.6</ele>
        <time>2020-02-23T09:41:50Z</time>
      </trkpt>
      <trkpt lat="44.16619" lon="4.6915">
        <ele>82.1</ele>
        <time>2020-02-23T09:42:01Z</time>
      </trkpt>
      <trkpt lat="44.1662" lon="4.69138">
        <ele>81.8</ele>
        <time>2020-02-23T09:45:14Z</time>
      </trkpt>
      <trkpt lat="44.1663" lon="4.69115">
        <ele>81.4</ele>
        <time>2020-02-23T09:45:22Z</time>
      </trkpt>
      <trkpt lat="44.16647" lon="4.69104">
        <ele>81.3</ele>
        <time>2020-02-23T09:45:28Z</time>
      </trkpt>
      <trkpt lat="44.16665" lon="4.69097">
        <ele>80.8</ele>
        <time>2020-02-23T09:45:34Z</time>
      </trkpt>
      <trkpt lat="44.16685" lon="4.69091">
        <ele>80.5</ele>
        <time>2020-02-23T09:45:40Z</time>
      </trkpt>
      <trkpt lat="44.167" lon="4.69076">
        <ele>80.4</ele>
        <time>2020-02-23T09:45:46Z</time>
      </trkpt>
      <trkpt lat="44.16706" lon="4.69052">
        <ele>80.5</ele>
        <time>2020-02-23T09:45:52Z</time>
      </trkpt>
      <trkpt lat="44.1671" lon="4.69027">
        <ele>80.8</ele>
        <time>2020-02-23T09:45:58Z</time>
      </trkpt>
      <trkpt lat="44.16714" lon="4.69002">
        <ele>81.2</ele>
        <time>2020-02-23T09:46:04Z</time>
      </trkpt>
      <trkpt lat="44.1672" lon="4.68975">
        <ele>81.8</ele>
        <time>2020-02-23T09:46:11Z</time>
      </trkpt>
      <trkpt lat="44.16725" lon="4.6895">
        <ele>82.3</ele>
        <time>2020-02-23T09:46:17Z</time>
      </trkpt>
      <trkpt lat="44.16731" lon="4.68925">
        <ele>82.8</ele>
        <time>2020-02-23T09:46:23Z</time>
      </trkpt>
      <trkpt lat="44.16737" lon="4.68901">
        <ele>83.6</ele>
        <time>2020-02-23T09:46:30Z</time>
      </trkpt>
      <trkpt lat="44.16744" lon="4.68875">
        <ele>84.2</ele>
        <time>2020-02-23T09:46:37Z</time>
      </trkpt>
      <trkpt lat="44.1675" lon="4.68849">
        <ele>85.1</ele>
        <time>2020-02-23T09:46:45Z</time>
      </trkpt>
      <trkpt lat="44.16755" lon="4.68825">
        <ele>86</ele>
        <time>2020-02-23T09:46:52Z</time>
      </trkpt>
      <trkpt lat="44.16761" lon="4.68798">
        <ele>86.8</ele>
        <time>2020-02-23T09:47:00Z</time>
      </trkpt>
      <trkpt lat="44.16767" lon="4.68772">
        <ele>87.5</ele>
        <time>2020-02-23T09:47:08Z</time>
      </trkpt>
      <trkpt lat="44.16774" lon="4.68746">
        <ele>88.4</ele>
        <time>2020-02-23T09:47:16Z</time>
      </trkpt>
      <trkpt lat="44.16782" lon="4.68721">
        <ele>89.1</ele>
        <time>2020-02-23T09:47:25Z</time>
      </trkpt>
      <trkpt lat="44.16789" lon="4.68696">
        <ele>90.3</ele>
        <time>2020-02-23T09:47:32Z</time>
      </trkpt>
      <trkpt lat="44.16794" lon="4.6867">
        <ele>92.3</ele>
        <time>2020-02-23T09:47:39Z</time>
      </trkpt>
      <trkpt lat="44.16801" lon="4.68644">
        <ele>93.4</ele>
        <time>2020-02-23T09:47:46Z</time>
      </trkpt>
      <trkpt lat="44.16807" lon="4.68618">
        <ele>93.8</ele>
        <time>2020-02-23T09:47:53Z</time>
      </trkpt>
      <trkpt lat="44.16813" lon="4.68593">
        <ele>94.4</ele>
        <time>2020-02-23T09:48:00Z</time>
      </trkpt>
      <trkpt lat="44.16819" lon="4.68568">
        <ele>95.3</ele>
        <time>2020-02-23T09:48:07Z</time>
      </trkpt>
      <trkpt lat="44.16826" lon="4.68543">
        <ele>96.3</ele>
        <time>2020-02-23T09:48:15Z</time>
      </trkpt>
      <trkpt lat="44.16832" lon="4.68516">
        <ele>98.1</ele>
        <time>2020-02-23T09:48:23Z</time>
      </trkpt>
      <trkpt lat="44.16837" lon="4.6849">
        <ele>100.6</ele>
        <time>2020-02-23T09:48:30Z</time>
      </trkpt>
      <trkpt lat="44.16841" lon="4.68466">
        <ele>101.6</ele>
        <time>2020-02-23T09:48:37Z</time>
      </trkpt>
      <trkpt lat="44.16846" lon="4.68441">
        <ele>101.4</ele>
        <time>2020-02-23T09:48:45Z</time>
      </trkpt>
      <trkpt lat="44.16852" lon="4.68416">
        <ele>101.6</ele>
        <time>2020-02-23T09:48:53Z</time>
      </trkpt>
      <trkpt lat="44.16859" lon="4.68391">
        <ele>102.3</ele>
        <time>2020-02-23T09:49:01Z</time>
      </trkpt>
      <trkpt lat="44.16865" lon="4.68366">
        <ele>103.9</ele>
        <time>2020-02-23T09:49:09Z</time>
      </trkpt>
      <trkpt lat="44.1687" lon="4.68341">
        <ele>106.3</ele>
        <time>2020-02-23T09:49:17Z</time>
      </trkpt>
      <trkpt lat="44.16873" lon="4.68314">
        <ele>108.3</ele>
        <time>2020-02-23T09:49:26Z</time>
      </trkpt>
      <trkpt lat="44.16867" lon="4.6829">
        <ele>110.3</ele>
        <time>2020-02-23T09:49:34Z</time>
      </trkpt>
      <trkpt lat="44.16856" lon="4.68269">
        <ele>111.5</ele>
        <time>2020-02-23T09:49:42Z</time>
      </trkpt>
      <trkpt lat="44.16849" lon="4.68245">
        <ele>111.7</ele>
        <time>2020-02-23T09:49:50Z</time>
      </trkpt>
      <trkpt lat="44.1685" lon="4.68218">
        <ele>112.4</ele>
        <time>2020-02-23T09:49:59Z</time>
      </trkpt>
      <trkpt lat="44.16847" lon="4.68191">
        <ele>113.6</ele>
        <time>2020-02-23T09:50:07Z</time>
      </trkpt>
      <trkpt lat="44.16847" lon="4.68166">
        <ele>114.4</ele>
        <time>2020-02-23T09:50:15Z</time>
      </trkpt>
      <trkpt lat="44.16854" lon="4.68141">
        <ele>115</ele>
        <time>2020-02-23T09:50:23Z</time>
      </trkpt>
      <trkpt lat="44.16859" lon="4.68115">
        <ele>115.8</ele>
        <time>2020-02-23T09:50:31Z</time>
      </trkpt>
      <trkpt lat="44.16859" lon="4.68088">
        <ele>117</ele>
        <time>2020-02-23T09:50:40Z</time>
      </trkpt>
      <trkpt lat="44.16852" lon="4.68062">
        <ele>117.5</ele>
        <time>2020-02-23T09:50:48Z</time>
      </trkpt>
      <trkpt lat="44.16845" lon="4.68038">
        <ele>117.6</ele>
        <time>2020-02-23T09:50:55Z</time>
      </trkpt>
      <trkpt lat="44.16834" lon="4.68015">
        <ele>118.1</ele>
        <time>2020-02-23T09:51:03Z</time>
      </trkpt>
      <trkpt lat="44.16827" lon="4.67992">
        <ele>119</ele>
        <time>2020-02-23T09:51:10Z</time>
      </trkpt>
      <trkpt lat="44.16823" lon="4.67965">
        <ele>120.1</ele>
        <time>2020-02-23T09:51:18Z</time>
      </trkpt>
      <trkpt lat="44.16821" lon="4.67939">
        <ele>121.1</ele>
        <time>2020-02-23T09:51:26Z</time>
      </trkpt>
      <trkpt lat="44.16821" lon="4.67913">
        <ele>122.9</ele>
        <time>2020-02-23T09:51:34Z</time>
      </trkpt>
      <trkpt lat="44.16822" lon="4.67887">
        <ele>124.5</ele>
        <time>2020-02-23T09:51:43Z</time>
      </trkpt>
      <trkpt lat="44.16821" lon="4.67862">
        <ele>125</ele>
        <time>2020-02-23T09:51:51Z</time>
      </trkpt>
      <trkpt lat="44.16821" lon="4.67836">
        <ele>126.3</ele>
        <time>2020-02-23T09:52:00Z</time>
      </trkpt>
      <trkpt lat="44.16816" lon="4.67812">
        <ele>127.8</ele>
        <time>2020-02-23T09:52:11Z</time>
      </trkpt>
      <trkpt lat="44.16812" lon="4.67785">
        <ele>129.4</ele>
        <time>2020-02-23T09:52:22Z</time>
      </trkpt>
      <trkpt lat="44.16814" lon="4.67758">
        <ele>130.8</ele>
        <time>2020-02-23T09:52:33Z</time>
      </trkpt>
      <trkpt lat="44.16813" lon="4.67732">
        <ele>131</ele>
        <time>2020-02-23T09:52:46Z</time>
      </trkpt>
      <trkpt lat="44.1682" lon="4.67709">
        <ele>130.7</ele>
        <time>2020-02-23T09:52:57Z</time>
      </trkpt>
      <trkpt lat="44.16825" lon="4.67685">
        <ele>130.1</ele>
        <time>2020-02-23T09:53:06Z</time>
      </trkpt>
      <trkpt lat="44.16831" lon="4.67659">
        <ele>128.6</ele>
        <time>2020-02-23T09:53:13Z</time>
      </trkpt>
      <trkpt lat="44.16837" lon="4.67631">
        <ele>126.8</ele>
        <time>2020-02-23T09:53:18Z</time>
      </trkpt>
      <trkpt lat="44.16844" lon="4.67603">
        <ele>125.2</ele>
        <time>2020-02-23T09:53:23Z</time>
      </trkpt>
      <trkpt lat="44.16845" lon="4.6759">
        <ele>124.5</ele>
        <time>2020-02-23T09:53:25Z</time>
      </trkpt>
      <trkpt lat="44.16856" lon="4.6757">
        <ele>123.9</ele>
        <time>2020-02-23T09:53:28Z</time>
      </trkpt>
      <trkpt lat="44.16873" lon="4.6756">
        <ele>124.6</ele>
        <time>2020-02-23T09:53:31Z</time>
      </trkpt>
      <trkpt lat="44.16884" lon="4.67554">
        <ele>125</ele>
        <time>2020-02-23T09:53:33Z</time>
      </trkpt>
      <trkpt lat="44.16901" lon="4.67542">
        <ele>125.5</ele>
        <time>2020-02-23T09:53:37Z</time>
      </trkpt>
      <trkpt lat="44.16916" lon="4.67522">
        <ele>126</ele>
        <time>2020-02-23T09:53:42Z</time>
      </trkpt>
      <trkpt lat="44.16925" lon="4.675">
        <ele>126.7</ele>
        <time>2020-02-23T09:53:47Z</time>
      </trkpt>
      <trkpt lat="44.16934" lon="4.67476">
        <ele>127.7</ele>
        <time>2020-02-23T09:53:53Z</time>
      </trkpt>
      <trkpt lat="44.16944" lon="4.67464">
        <ele>127.9</ele>
        <time>2020-02-23T09:54:02Z</time>
      </trkpt>
      <trkpt lat="44.16955" lon="4.6747">
        <ele>129</ele>
        <time>2020-02-23T09:54:38Z</time>
      </trkpt>
      <trkpt lat="44.16975" lon="4.67468">
        <ele>130.4</ele>
        <time>2020-02-23T09:54:48Z</time>
      </trkpt>
      <trkpt lat="44.16993" lon="4.67461">
        <ele>131.8</ele>
        <time>2020-02-23T09:54:56Z</time>
      </trkpt>
      <trkpt lat="44.1701" lon="4.6745">
        <ele>133</ele>
        <time>2020-02-23T09:55:04Z</time>
      </trkpt>
      <trkpt lat="44.17028" lon="4.67442">
        <ele>134.6</ele>
        <time>2020-02-23T09:55:13Z</time>
      </trkpt>
      <trkpt lat="44.17045" lon="4.67433">
        <ele>136.3</ele>
        <time>2020-02-23T09:55:20Z</time>
      </trkpt>
      <trkpt lat="44.17062" lon="4.67424">
        <ele>138.4</ele>
        <time>2020-02-23T09:55:28Z</time>
      </trkpt>
      <trkpt lat="44.17082" lon="4.67419">
        <ele>141</ele>
        <time>2020-02-23T09:55:36Z</time>
      </trkpt>
      <trkpt lat="44.17101" lon="4.67415">
        <ele>143.1</ele>
        <time>2020-02-23T09:55:43Z</time>
      </trkpt>
      <trkpt lat="44.17121" lon="4.67409">
        <ele>145</ele>
        <time>2020-02-23T09:55:51Z</time>
      </trkpt>
      <trkpt lat="44.17138" lon="4.674">
        <ele>146.9</ele>
        <time>2020-02-23T09:56:01Z</time>
      </trkpt>
      <trkpt lat="44.17155" lon="4.6739">
        <ele>148.6</ele>
        <time>2020-02-23T09:56:12Z</time>
      </trkpt>
      <trkpt lat="44.17172" lon="4.6738">
        <ele>150.2</ele>
        <time>2020-02-23T09:56:24Z</time>
      </trkpt>
      <trkpt lat="44.1719" lon="4.67371">
        <ele>152.2</ele>
        <time>2020-02-23T09:56:36Z</time>
      </trkpt>
      <trkpt lat="44.17209" lon="4.67363">
        <ele>154.7</ele>
        <time>2020-02-23T09:56:47Z</time>
      </trkpt>
      <trkpt lat="44.17228" lon="4.67356">
        <ele>157.1</ele>
        <time>2020-02-23T09:56:57Z</time>
      </trkpt>
      <trkpt lat="44.17246" lon="4.67352">
        <ele>159</ele>
        <time>2020-02-23T09:57:07Z</time>
      </trkpt>
      <trkpt lat="44.17265" lon="4.67349">
        <ele>161.6</ele>
        <time>2020-02-23T09:57:20Z</time>
      </trkpt>
      <trkpt lat="44.17285" lon="4.67351">
        <ele>164.6</ele>
        <time>2020-02-23T09:57:33Z</time>
      </trkpt>
      <trkpt lat="44.17302" lon="4.67345">
        <ele>166.1</ele>
        <time>2020-02-23T09:57:42Z</time>
      </trkpt>
      <trkpt lat="44.1732" lon="4.67333">
        <ele>167.2</ele>
        <time>2020-02-23T09:57:53Z</time>
      </trkpt>
      <trkpt lat="44.17338" lon="4.6733">
        <ele>168.2</ele>
        <time>2020-02-23T09:58:03Z</time>
      </trkpt>
      <trkpt lat="44.17356" lon="4.67327">
        <ele>169.5</ele>
        <time>2020-02-23T09:58:13Z</time>
      </trkpt>
      <trkpt lat="44.17371" lon="4.67341">
        <ele>170.3</ele>
        <time>2020-02-23T09:58:25Z</time>
      </trkpt>
      <trkpt lat="44.17372" lon="4.67367">
        <ele>170</ele>
        <time>2020-02-23T09:58:37Z</time>
      </trkpt>
      <trkpt lat="44.1737" lon="4.67394">
        <ele>169.6</ele>
        <time>2020-02-23T09:58:50Z</time>
      </trkpt>
      <trkpt lat="44.17371" lon="4.67422">
        <ele>168.7</ele>
        <time>2020-02-23T09:59:00Z</time>
      </trkpt>
      <trkpt lat="44.17371" lon="4.67438">
        <ele>167.8</ele>
        <time>2020-02-23T09:59:06Z</time>
      </trkpt>
      <trkpt lat="44.1737" lon="4.67445">
        <ele>167.2</ele>
        <time>2020-02-23T09:59:11Z</time>
      </trkpt>
      <trkpt lat="44.17379" lon="4.67466">
        <ele>166.7</ele>
        <time>2020-02-23T10:00:48Z</time>
      </trkpt>
      <trkpt lat="44.17391" lon="4.67465">
        <ele>168.1</ele>
        <time>2020-02-23T10:00:56Z</time>
      </trkpt>
      <trkpt lat="44.17394" lon="4.67466">
        <ele>168.4</ele>
        <time>2020-02-23T10:00:58Z</time>
      </trkpt>
      <trkpt lat="44.17403" lon="4.67469">
        <ele>169.5</ele>
        <time>2020-02-23T10:01:03Z</time>
      </trkpt>
      <trkpt lat="44.17416" lon="4.67455">
        <ele>171.7</ele>
        <time>2020-02-23T10:01:15Z</time>
      </trkpt>
      <trkpt lat="44.17408" lon="4.6743">
        <ele>173.9</ele>
        <time>2020-02-23T10:01:28Z</time>
      </trkpt>
      <trkpt lat="44.17404" lon="4.67406">
        <ele>175.4</ele>
        <time>2020-02-23T10:01:41Z</time>
      </trkpt>
      <trkpt lat="44.17411" lon="4.67382">
        <ele>176.6</ele>
        <time>2020-02-23T10:01:54Z</time>
      </trkpt>
      <trkpt lat="44.17427" lon="4.67368">
        <ele>178</ele>
        <time>2020-02-23T10:02:03Z</time>
      </trkpt>
      <trkpt lat="44.17432" lon="4.67343">
        <ele>179.6</ele>
        <time>2020-02-23T10:02:13Z</time>
      </trkpt>
      <trkpt lat="44.17441" lon="4.67321">
        <ele>181.5</ele>
        <time>2020-02-23T10:02:21Z</time>
      </trkpt>
      <trkpt lat="44.17457" lon="4.67308">
        <ele>184.4</ele>
        <time>2020-02-23T10:02:35Z</time>
      </trkpt>
      <trkpt lat="44.17475" lon="4.673">
        <ele>187.4</ele>
        <time>2020-02-23T10:02:49Z</time>
      </trkpt>
      <trkpt lat="44.17491" lon="4.67288">
        <ele>189.7</ele>
        <time>2020-02-23T10:03:04Z</time>
      </trkpt>
      <trkpt lat="44.17509" lon="4.67281">
        <ele>191.8</ele>
        <time>2020-02-23T10:03:17Z</time>
      </trkpt>
      <trkpt lat="44.17526" lon="4.67272">
        <ele>194</ele>
        <time>2020-02-23T10:03:30Z</time>
      </trkpt>
      <trkpt lat="44.17544" lon="4.67263">
        <ele>196.3</ele>
        <time>2020-02-23T10:03:44Z</time>
      </trkpt>
      <trkpt lat="44.17562" lon="4.67262">
        <ele>198.5</ele>
        <time>2020-02-23T10:03:57Z</time>
      </trkpt>
      <trkpt lat="44.17579" lon="4.67258">
        <ele>200.8</ele>
        <time>2020-02-23T10:04:10Z</time>
      </trkpt>
      <trkpt lat="44.17597" lon="4.6725">
        <ele>202.4</ele>
        <time>2020-02-23T10:04:21Z</time>
      </trkpt>
      <trkpt lat="44.17613" lon="4.67238">
        <ele>204</ele>
        <time>2020-02-23T10:04:32Z</time>
      </trkpt>
      <trkpt lat="44.17609" lon="4.67214">
        <ele>205.7</ele>
        <time>2020-02-23T10:04:45Z</time>
      </trkpt>
      <trkpt lat="44.17598" lon="4.67192">
        <ele>207.5</ele>
        <time>2020-02-23T10:04:58Z</time>
      </trkpt>
      <trkpt lat="44.17588" lon="4.67171">
        <ele>209.5</ele>
        <time>2020-02-23T10:05:11Z</time>
      </trkpt>
      <trkpt lat="44.17581" lon="4.67148">
        <ele>211.1</ele>
        <time>2020-02-23T10:05:23Z</time>
      </trkpt>
      <trkpt lat="44.17577" lon="4.67122">
        <ele>213.3</ele>
        <time>2020-02-23T10:05:33Z</time>
      </trkpt>
      <trkpt lat="44.17572" lon="4.67098">
        <ele>213.8</ele>
        <time>2020-02-23T10:05:44Z</time>
      </trkpt>
      <trkpt lat="44.17561" lon="4.67077">
        <ele>214.3</ele>
        <time>2020-02-23T10:05:57Z</time>
      </trkpt>
      <trkpt lat="44.1755" lon="4.67056">
        <ele>215.1</ele>
        <time>2020-02-23T10:06:11Z</time>
      </trkpt>
      <trkpt lat="44.17536" lon="4.67038">
        <ele>215.8</ele>
        <time>2020-02-23T10:06:27Z</time>
      </trkpt>
      <trkpt lat="44.17534" lon="4.67034">
        <ele>215.9</ele>
        <time>2020-02-23T10:06:32Z</time>
      </trkpt>
      <trkpt lat="44.17515" lon="4.67012">
        <ele>214.9</ele>
        <time>2020-02-23T10:06:54Z</time>
      </trkpt>
      <trkpt lat="44.17506" lon="4.67012">
        <ele>214.8</ele>
        <time>2020-02-23T10:07:01Z</time>
      </trkpt>
      <trkpt lat="44.17503" lon="4.67029">
        <ele>214.6</ele>
        <time>2020-02-23T10:10:07Z</time>
      </trkpt>
      <trkpt lat="44.17493" lon="4.67052">
        <ele>214.4</ele>
        <time>2020-02-23T10:10:17Z</time>
      </trkpt>
      <trkpt lat="44.17477" lon="4.67059">
        <ele>214.4</ele>
        <time>2020-02-23T10:10:27Z</time>
      </trkpt>
      <trkpt lat="44.17465" lon="4.67041">
        <ele>214.5</ele>
        <time>2020-02-23T10:10:38Z</time>
      </trkpt>
      <trkpt lat="44.17451" lon="4.67023">
        <ele>214.6</ele>
        <time>2020-02-23T10:10:49Z</time>
      </trkpt>
      <trkpt lat="44.17433" lon="4.6701">
        <ele>214.9</ele>
        <time>2020-02-23T10:10:59Z</time>
      </trkpt>
      <trkpt lat="44.17416" lon="4.67004">
        <ele>215.2</ele>
        <time>2020-02-23T10:11:06Z</time>
      </trkpt>
      <trkpt lat="44.17394" lon="4.67013">
        <ele>215.6</ele>
        <time>2020-02-23T10:11:12Z</time>
      </trkpt>
      <trkpt lat="44.1738" lon="4.6703">
        <ele>215.8</ele>
        <time>2020-02-23T10:11:17Z</time>
      </trkpt>
      <trkpt lat="44.17371" lon="4.67052">
        <ele>215.9</ele>
        <time>2020-02-23T10:11:25Z</time>
      </trkpt>
      <trkpt lat="44.1736" lon="4.67072">
        <ele>216.1</ele>
        <time>2020-02-23T10:11:33Z</time>
      </trkpt>
      <trkpt lat="44.17344" lon="4.67086">
        <ele>216.6</ele>
        <time>2020-02-23T10:11:42Z</time>
      </trkpt>
      <trkpt lat="44.17337" lon="4.6711">
        <ele>216.9</ele>
        <time>2020-02-23T10:11:55Z</time>
      </trkpt>
      <trkpt lat="44.17338" lon="4.67136">
        <ele>216.3</ele>
        <time>2020-02-23T10:12:04Z</time>
      </trkpt>
      <trkpt lat="44.17338" lon="4.67146">
        <ele>215.9</ele>
        <time>2020-02-23T10:12:08Z</time>
      </trkpt>
      <trkpt lat="44.17331" lon="4.67153">
        <ele>215.5</ele>
        <time>2020-02-23T10:12:12Z</time>
      </trkpt>
      <trkpt lat="44.17313" lon="4.67161">
        <ele>214</ele>
        <time>2020-02-23T10:12:19Z</time>
      </trkpt>
      <trkpt lat="44.17293" lon="4.6716">
        <ele>211.7</ele>
        <time>2020-02-23T10:12:26Z</time>
      </trkpt>
      <trkpt lat="44.17275" lon="4.67154">
        <ele>208.9</ele>
        <time>2020-02-23T10:12:31Z</time>
      </trkpt>
      <trkpt lat="44.17256" lon="4.67152">
        <ele>205.9</ele>
        <time>2020-02-23T10:12:39Z</time>
      </trkpt>
      <trkpt lat="44.17239" lon="4.67145">
        <ele>202.6</ele>
        <time>2020-02-23T10:12:48Z</time>
      </trkpt>
      <trkpt lat="44.17244" lon="4.67185">
        <ele>194.7</ele>
        <time>2020-02-23T10:14:29Z</time>
      </trkpt>
      <trkpt lat="44.17248" lon="4.6721">
        <ele>185.2</ele>
        <time>2020-02-23T10:14:37Z</time>
      </trkpt>
      <trkpt lat="44.17267" lon="4.67214">
        <ele>184.4</ele>
        <time>2020-02-23T10:14:48Z</time>
      </trkpt>
      <trkpt lat="44.17269" lon="4.67214">
        <ele>184.3</ele>
        <time>2020-02-23T10:14:49Z</time>
      </trkpt>
      <trkpt lat="44.17286" lon="4.67221">
        <ele>183.4</ele>
        <time>2020-02-23T10:15:01Z</time>
      </trkpt>
      <trkpt lat="44.17287" lon="4.67222">
        <ele>183.3</ele>
        <time>2020-02-23T10:15:02Z</time>
      </trkpt>
      <trkpt lat="44.17288" lon="4.67225">
        <ele>183.2</ele>
        <time>2020-02-23T10:15:04Z</time>
      </trkpt>
      <trkpt lat="44.17304" lon="4.67241">
        <ele>182.4</ele>
        <time>2020-02-23T10:15:16Z</time>
      </trkpt>
      <trkpt lat="44.17308" lon="4.67243">
        <ele>182.2</ele>
        <time>2020-02-23T10:15:18Z</time>
      </trkpt>
      <trkpt lat="44.17326" lon="4.67245">
        <ele>181.1</ele>
        <time>2020-02-23T10:15:29Z</time>
      </trkpt>
      <trkpt lat="44.17337" lon="4.67243">
        <ele>180.2</ele>
        <time>2020-02-23T10:15:35Z</time>
      </trkpt>
      <trkpt lat="44.17353" lon="4.67254">
        <ele>178.7</ele>
        <time>2020-02-23T10:15:44Z</time>
      </trkpt>
      <trkpt lat="44.17362" lon="4.67253">
        <ele>178</ele>
        <time>2020-02-23T10:15:48Z</time>
      </trkpt>
      <trkpt lat="44.17366" lon="4.67255">
        <ele>177.6</ele>
        <time>2020-02-23T10:15:51Z</time>
      </trkpt>
      <trkpt lat="44.1738" lon="4.67272">
        <ele>176</ele>
        <time>2020-02-23T10:15:59Z</time>
      </trkpt>
      <trkpt lat="44.17387" lon="4.67288">
        <ele>175</ele>
        <time>2020-02-23T10:16:06Z</time>
      </trkpt>
      <trkpt lat="44.17384" lon="4.673">
        <ele>173.8</ele>
        <time>2020-02-23T10:16:13Z</time>
      </trkpt>
      <trkpt lat="44.17387" lon="4.6732">
        <ele>170.3</ele>
        <time>2020-02-23T10:19:04Z</time>
      </trkpt>
      <trkpt lat="44.17386" lon="4.67348">
        <ele>170.2</ele>
        <time>2020-02-23T10:19:14Z</time>
      </trkpt>
      <trkpt lat="44.17382" lon="4.67374">
        <ele>169.8</ele>
        <time>2020-02-23T10:19:25Z</time>
      </trkpt>
      <trkpt lat="44.17382" lon="4.674">
        <ele>169.3</ele>
        <time>2020-02-23T10:19:37Z</time>
      </trkpt>
      <trkpt lat="44.17385" lon="4.67428">
        <ele>168.4</ele>
        <time>2020-02-23T10:19:44Z</time>
      </trkpt>
      <trkpt lat="44.17386" lon="4.67443">
        <ele>167.4</ele>
        <time>2020-02-23T10:19:49Z</time>
      </trkpt>
      <trkpt lat="44.1737" lon="4.67456">
        <ele>165.8</ele>
        <time>2020-02-23T10:19:56Z</time>
      </trkpt>
      <trkpt lat="44.17366" lon="4.67461">
        <ele>166.1</ele>
        <time>2020-02-23T10:19:58Z</time>
      </trkpt>
      <trkpt lat="44.17355" lon="4.67485">
        <ele>166.8</ele>
        <time>2020-02-23T10:20:06Z</time>
      </trkpt>
      <trkpt lat="44.17346" lon="4.67507">
        <ele>167.1</ele>
        <time>2020-02-23T10:20:14Z</time>
      </trkpt>
      <trkpt lat="44.1734" lon="4.67531">
        <ele>167.4</ele>
        <time>2020-02-23T10:20:23Z</time>
      </trkpt>
      <trkpt lat="44.17338" lon="4.67556">
        <ele>167.3</ele>
        <time>2020-02-23T10:20:32Z</time>
      </trkpt>
      <trkpt lat="44.17339" lon="4.67582">
        <ele>167.2</ele>
        <time>2020-02-23T10:20:39Z</time>
      </trkpt>
      <trkpt lat="44.17345" lon="4.67603">
        <ele>167.1</ele>
        <time>2020-02-23T10:20:43Z</time>
      </trkpt>
      <trkpt lat="44.17355" lon="4.67618">
        <ele>168.8</ele>
        <time>2020-02-23T10:20:47Z</time>
      </trkpt>
      <trkpt lat="44.1737" lon="4.67633">
        <ele>170.8</ele>
        <time>2020-02-23T10:20:53Z</time>
      </trkpt>
      <trkpt lat="44.17385" lon="4.6765">
        <ele>173.3</ele>
        <time>2020-02-23T10:21:00Z</time>
      </trkpt>
      <trkpt lat="44.17397" lon="4.6767">
        <ele>175.8</ele>
        <time>2020-02-23T10:21:07Z</time>
      </trkpt>
      <trkpt lat="44.1741" lon="4.67688">
        <ele>178.6</ele>
        <time>2020-02-23T10:21:14Z</time>
      </trkpt>
      <trkpt lat="44.17418" lon="4.67687">
        <ele>179.8</ele>
        <time>2020-02-23T10:21:18Z</time>
      </trkpt>
      <trkpt lat="44.17415" lon="4.67663">
        <ele>181.8</ele>
        <time>2020-02-23T10:21:27Z</time>
      </trkpt>
      <trkpt lat="44.17414" lon="4.6766">
        <ele>181.9</ele>
        <time>2020-02-23T10:21:28Z</time>
      </trkpt>
      <trkpt lat="44.17401" lon="4.67639">
        <ele>182.2</ele>
        <time>2020-02-23T10:21:36Z</time>
      </trkpt>
      <trkpt lat="44.17389" lon="4.67619">
        <ele>182.8</ele>
        <time>2020-02-23T10:21:45Z</time>
      </trkpt>
      <trkpt lat="44.17379" lon="4.67598">
        <ele>183.7</ele>
        <time>2020-02-23T10:21:54Z</time>
      </trkpt>
      <trkpt lat="44.17372" lon="4.67573">
        <ele>184.6</ele>
        <time>2020-02-23T10:22:04Z</time>
      </trkpt>
      <trkpt lat="44.17371" lon="4.67548">
        <ele>185</ele>
        <time>2020-02-23T10:22:13Z</time>
      </trkpt>
      <trkpt lat="44.1738" lon="4.67526">
        <ele>185.5</ele>
        <time>2020-02-23T10:22:22Z</time>
      </trkpt>
      <trkpt lat="44.17397" lon="4.67514">
        <ele>186.5</ele>
        <time>2020-02-23T10:22:32Z</time>
      </trkpt>
      <trkpt lat="44.17416" lon="4.67513">
        <ele>187.5</ele>
        <time>2020-02-23T10:22:40Z</time>
      </trkpt>
      <trkpt lat="44.17434" lon="4.67518">
        <ele>188.4</ele>
        <time>2020-02-23T10:22:50Z</time>
      </trkpt>
      <trkpt lat="44.17453" lon="4.67526">
        <ele>188.8</ele>
        <time>2020-02-23T10:23:00Z</time>
      </trkpt>
      <trkpt lat="44.17467" lon="4.67543">
        <ele>189.2</ele>
        <time>2020-02-23T10:23:11Z</time>
      </trkpt>
      <trkpt lat="44.17483" lon="4.67559">
        <ele>190.4</ele>
        <time>2020-02-23T10:23:21Z</time>
      </trkpt>
      <trkpt lat="44.17501" lon="4.67564">
        <ele>191.5</ele>
        <time>2020-02-23T10:23:30Z</time>
      </trkpt>
      <trkpt lat="44.17519" lon="4.67567">
        <ele>192.4</ele>
        <time>2020-02-23T10:23:39Z</time>
      </trkpt>
      <trkpt lat="44.17539" lon="4.67567">
        <ele>193.5</ele>
        <time>2020-02-23T10:23:49Z</time>
      </trkpt>
      <trkpt lat="44.17559" lon="4.67568">
        <ele>195</ele>
        <time>2020-02-23T10:23:59Z</time>
      </trkpt>
      <trkpt lat="44.17579" lon="4.67569">
        <ele>196.7</ele>
        <time>2020-02-23T10:24:09Z</time>
      </trkpt>
      <trkpt lat="44.17594" lon="4.67559">
        <ele>197.8</ele>
        <time>2020-02-23T10:24:19Z</time>
      </trkpt>
      <trkpt lat="44.17593" lon="4.67534">
        <ele>199</ele>
        <time>2020-02-23T10:24:29Z</time>
      </trkpt>
      <trkpt lat="44.17586" lon="4.6751">
        <ele>199.8</ele>
        <time>2020-02-23T10:24:39Z</time>
      </trkpt>
      <trkpt lat="44.1758" lon="4.67486">
        <ele>199.6</ele>
        <time>2020-02-23T10:24:49Z</time>
      </trkpt>
      <trkpt lat="44.17576" lon="4.67474">
        <ele>199.5</ele>
        <time>2020-02-23T10:24:55Z</time>
      </trkpt>
      <trkpt lat="44.17573" lon="4.6747">
        <ele>199.4</ele>
        <time>2020-02-23T10:25:01Z</time>
      </trkpt>
      <trkpt lat="44.1757" lon="4.67457">
        <ele>199.5</ele>
        <time>2020-02-23T10:26:04Z</time>
      </trkpt>
      <trkpt lat="44.17564" lon="4.67432">
        <ele>199.8</ele>
        <time>2020-02-23T10:26:15Z</time>
      </trkpt>
      <trkpt lat="44.17554" lon="4.67409">
        <ele>200.2</ele>
        <time>2020-02-23T10:26:26Z</time>
      </trkpt>
      <trkpt lat="44.17538" lon="4.67397">
        <ele>200.6</ele>
        <time>2020-02-23T10:26:35Z</time>
      </trkpt>
      <trkpt lat="44.17524" lon="4.67382">
        <ele>200.8</ele>
        <time>2020-02-23T10:26:44Z</time>
      </trkpt>
      <trkpt lat="44.17534" lon="4.67366">
        <ele>200.5</ele>
        <time>2020-02-23T10:26:53Z</time>
      </trkpt>
      <trkpt lat="44.17553" lon="4.67359">
        <ele>200.2</ele>
        <time>2020-02-23T10:27:02Z</time>
      </trkpt>
      <trkpt lat="44.17572" lon="4.67352">
        <ele>200.1</ele>
        <time>2020-02-23T10:27:12Z</time>
      </trkpt>
      <trkpt lat="44.17591" lon="4.67349">
        <ele>200.1</ele>
        <time>2020-02-23T10:27:22Z</time>
      </trkpt>
      <trkpt lat="44.17596" lon="4.67347">
        <ele>200.1</ele>
        <time>2020-02-23T10:27:26Z</time>
      </trkpt>
      <trkpt lat="44.17614" lon="4.67355">
        <ele>200.1</ele>
        <time>2020-02-23T10:27:37Z</time>
      </trkpt>
      <trkpt lat="44.17615" lon="4.67355">
        <ele>200.1</ele>
        <time>2020-02-23T10:27:39Z</time>
      </trkpt>
      <trkpt lat="44.17621" lon="4.67363">
        <ele>200.1</ele>
        <time>2020-02-23T10:29:40Z</time>
      </trkpt>
      <trkpt lat="44.17628" lon="4.67388">
        <ele>201.7</ele>
        <time>2020-02-23T10:29:48Z</time>
      </trkpt>
      <trkpt lat="44.17631" lon="4.67413">
        <ele>203.4</ele>
        <time>2020-02-23T10:29:56Z</time>
      </trkpt>
      <trkpt lat="44.17635" lon="4.67439">
        <ele>205.5</ele>
        <time>2020-02-23T10:30:03Z</time>
      </trkpt>
      <trkpt lat="44.17649" lon="4.67455">
        <ele>206.7</ele>
        <time>2020-02-23T10:30:10Z</time>
      </trkpt>
      <trkpt lat="44.17667" lon="4.67454">
        <ele>207.4</ele>
        <time>2020-02-23T10:30:17Z</time>
      </trkpt>
      <trkpt lat="44.17679" lon="4.67432">
        <ele>207.6</ele>
        <time>2020-02-23T10:30:24Z</time>
      </trkpt>
      <trkpt lat="44.17688" lon="4.67409">
        <ele>207.7</ele>
        <time>2020-02-23T10:30:30Z</time>
      </trkpt>
      <trkpt lat="44.17696" lon="4.67386">
        <ele>208.3</ele>
        <time>2020-02-23T10:30:36Z</time>
      </trkpt>
      <trkpt lat="44.17702" lon="4.6736">
        <ele>209.2</ele>
        <time>2020-02-23T10:30:42Z</time>
      </trkpt>
      <trkpt lat="44.1771" lon="4.67337">
        <ele>210</ele>
        <time>2020-02-23T10:30:48Z</time>
      </trkpt>
      <trkpt lat="44.17727" lon="4.67326">
        <ele>210.5</ele>
        <time>2020-02-23T10:30:55Z</time>
      </trkpt>
      <trkpt lat="44.17748" lon="4.67326">
        <ele>210.9</ele>
        <time>2020-02-23T10:31:01Z</time>
      </trkpt>
      <trkpt lat="44.17768" lon="4.67331">
        <ele>211.6</ele>
        <time>2020-02-23T10:31:08Z</time>
      </trkpt>
      <trkpt lat="44.17786" lon="4.6734">
        <ele>212.4</ele>
        <time>2020-02-23T10:31:14Z</time>
      </trkpt>
      <trkpt lat="44.17802" lon="4.67357">
        <ele>213.9</ele>
        <time>2020-02-23T10:31:21Z</time>
      </trkpt>
      <trkpt lat="44.17815" lon="4.67377">
        <ele>217.1</ele>
        <time>2020-02-23T10:31:28Z</time>
      </trkpt>
      <trkpt lat="44.17822" lon="4.67383">
        <ele>218.9</ele>
        <time>2020-02-23T10:31:32Z</time>
      </trkpt>
      <trkpt lat="44.17836" lon="4.67368">
        <ele>221.5</ele>
        <time>2020-02-23T10:31:40Z</time>
      </trkpt>
      <trkpt lat="44.17838" lon="4.67361">
        <ele>221.9</ele>
        <time>2020-02-23T10:31:42Z</time>
      </trkpt>
      <trkpt lat="44.1784" lon="4.67336">
        <ele>222.8</ele>
        <time>2020-02-23T10:31:51Z</time>
      </trkpt>
      <trkpt lat="44.17842" lon="4.6731">
        <ele>223.6</ele>
        <time>2020-02-23T10:32:00Z</time>
      </trkpt>
      <trkpt lat="44.17835" lon="4.67286">
        <ele>224.3</ele>
        <time>2020-02-23T10:32:09Z</time>
      </trkpt>
      <trkpt lat="44.17826" lon="4.67264">
        <ele>225.4</ele>
        <time>2020-02-23T10:32:17Z</time>
      </trkpt>
      <trkpt lat="44.17819" lon="4.67241">
        <ele>226.3</ele>
        <time>2020-02-23T10:32:25Z</time>
      </trkpt>
      <trkpt lat="44.17811" lon="4.67218">
        <ele>227</ele>
        <time>2020-02-23T10:32:35Z</time>
      </trkpt>
      <trkpt lat="44.17795" lon="4.67207">
        <ele>227.7</ele>
        <time>2020-02-23T10:32:44Z</time>
      </trkpt>
      <trkpt lat="44.17777" lon="4.67209">
        <ele>229.3</ele>
        <time>2020-02-23T10:32:53Z</time>
      </trkpt>
      <trkpt lat="44.17758" lon="4.67211">
        <ele>231.2</ele>
        <time>2020-02-23T10:33:04Z</time>
      </trkpt>
      <trkpt lat="44.1774" lon="4.67207">
        <ele>232.9</ele>
        <time>2020-02-23T10:33:15Z</time>
      </trkpt>
      <trkpt lat="44.17731" lon="4.67205">
        <ele>233.7</ele>
        <time>2020-02-23T10:33:21Z</time>
      </trkpt>
      <trkpt lat="44.17726" lon="4.6718">
        <ele>236.3</ele>
        <time>2020-02-23T10:33:40Z</time>
      </trkpt>
      <trkpt lat="44.17725" lon="4.67173">
        <ele>237</ele>
        <time>2020-02-23T10:33:44Z</time>
      </trkpt>
      <trkpt lat="44.17706" lon="4.6705">
        <ele>252.2</ele>
        <time>2020-02-23T10:35:27Z</time>
      </trkpt>
      <trkpt lat="44.17707" lon="4.67024">
        <ele>253.2</ele>
        <time>2020-02-23T10:35:38Z</time>
      </trkpt>
      <trkpt lat="44.17702" lon="4.66997">
        <ele>254.5</ele>
        <time>2020-02-23T10:35:51Z</time>
      </trkpt>
      <trkpt lat="44.17691" lon="4.66976">
        <ele>255.7</ele>
        <time>2020-02-23T10:36:00Z</time>
      </trkpt>
      <trkpt lat="44.17683" lon="4.66953">
        <ele>256.1</ele>
        <time>2020-02-23T10:36:09Z</time>
      </trkpt>
      <trkpt lat="44.17677" lon="4.66928">
        <ele>256.5</ele>
        <time>2020-02-23T10:36:20Z</time>
      </trkpt>
      <trkpt lat="44.17668" lon="4.66902">
        <ele>257</ele>
        <time>2020-02-23T10:36:29Z</time>
      </trkpt>
      <trkpt lat="44.17658" lon="4.66878">
        <ele>257.4</ele>
        <time>2020-02-23T10:36:39Z</time>
      </trkpt>
      <trkpt lat="44.17653" lon="4.66853">
        <ele>258.1</ele>
        <time>2020-02-23T10:36:48Z</time>
      </trkpt>
      <trkpt lat="44.17645" lon="4.6683">
        <ele>259.3</ele>
        <time>2020-02-23T10:36:57Z</time>
      </trkpt>
      <trkpt lat="44.1764" lon="4.66803">
        <ele>260.6</ele>
        <time>2020-02-23T10:37:08Z</time>
      </trkpt>
      <trkpt lat="44.1764" lon="4.66777">
        <ele>261.8</ele>
        <time>2020-02-23T10:37:19Z</time>
      </trkpt>
      <trkpt lat="44.1764" lon="4.66766">
        <ele>262.2</ele>
        <time>2020-02-23T10:37:26Z</time>
      </trkpt>
      <trkpt lat="44.17635" lon="4.66687">
        <ele>262.3</ele>
        <time>2020-02-23T10:40:27Z</time>
      </trkpt>
      <trkpt lat="44.17619" lon="4.66689">
        <ele>259.9</ele>
        <time>2020-02-23T10:40:36Z</time>
      </trkpt>
      <trkpt lat="44.17618" lon="4.66691">
        <ele>259.8</ele>
        <time>2020-02-23T10:40:39Z</time>
      </trkpt>
      <trkpt lat="44.17609" lon="4.66692">
        <ele>259.1</ele>
        <time>2020-02-23T10:40:46Z</time>
      </trkpt>
      <trkpt lat="44.17592" lon="4.66696">
        <ele>258</ele>
        <time>2020-02-23T10:40:57Z</time>
      </trkpt>
      <trkpt lat="44.17579" lon="4.66696">
        <ele>256.7</ele>
        <time>2020-02-23T10:41:04Z</time>
      </trkpt>
      <trkpt lat="44.17561" lon="4.66704">
        <ele>253.5</ele>
        <time>2020-02-23T10:41:12Z</time>
      </trkpt>
      <trkpt lat="44.17551" lon="4.6673">
        <ele>249.7</ele>
        <time>2020-02-23T10:41:18Z</time>
      </trkpt>
      <trkpt lat="44.17539" lon="4.66748">
        <ele>245.3</ele>
        <time>2020-02-23T10:41:23Z</time>
      </trkpt>
      <trkpt lat="44.17527" lon="4.6676">
        <ele>241.4</ele>
        <time>2020-02-23T10:41:31Z</time>
      </trkpt>
      <trkpt lat="44.17522" lon="4.66759">
        <ele>240.4</ele>
        <time>2020-02-23T10:44:17Z</time>
      </trkpt>
      <trkpt lat="44.17515" lon="4.66765">
        <ele>237.1</ele>
        <time>2020-02-23T10:44:20Z</time>
      </trkpt>
      <trkpt lat="44.17506" lon="4.66753">
        <ele>234.8</ele>
        <time>2020-02-23T10:44:26Z</time>
      </trkpt>
      <trkpt lat="44.17502" lon="4.66738">
        <ele>234.9</ele>
        <time>2020-02-23T10:44:30Z</time>
      </trkpt>
      <trkpt lat="44.17489" lon="4.66721">
        <ele>231.8</ele>
        <time>2020-02-23T10:44:36Z</time>
      </trkpt>
      <trkpt lat="44.17487" lon="4.6672">
        <ele>230.7</ele>
        <time>2020-02-23T10:44:37Z</time>
      </trkpt>
      <trkpt lat="44.17475" lon="4.66714">
        <ele>227.2</ele>
        <time>2020-02-23T10:44:43Z</time>
      </trkpt>
      <trkpt lat="44.17458" lon="4.66707">
        <ele>223</ele>
        <time>2020-02-23T10:44:52Z</time>
      </trkpt>
      <trkpt lat="44.17453" lon="4.66702">
        <ele>221.7</ele>
        <time>2020-02-23T10:44:56Z</time>
      </trkpt>
      <trkpt lat="44.17443" lon="4.6671">
        <ele>217.2</ele>
        <time>2020-02-23T10:45:05Z</time>
      </trkpt>
      <trkpt lat="44.17441" lon="4.66711">
        <ele>215.9</ele>
        <time>2020-02-23T10:45:06Z</time>
      </trkpt>
      <trkpt lat="44.17425" lon="4.66712">
        <ele>210.5</ele>
        <time>2020-02-23T10:45:18Z</time>
      </trkpt>
      <trkpt lat="44.17416" lon="4.66713">
        <ele>206.9</ele>
        <time>2020-02-23T10:45:21Z</time>
      </trkpt>
      <trkpt lat="44.174" lon="4.66719">
        <ele>201.9</ele>
        <time>2020-02-23T10:45:28Z</time>
      </trkpt>
      <trkpt lat="44.17394" lon="4.66718">
        <ele>199.9</ele>
        <time>2020-02-23T10:46:06Z</time>
      </trkpt>
      <trkpt lat="44.17377" lon="4.66717">
        <ele>195.2</ele>
        <time>2020-02-23T10:46:10Z</time>
      </trkpt>
      <trkpt lat="44.17364" lon="4.66723">
        <ele>191.8</ele>
        <time>2020-02-23T10:46:15Z</time>
      </trkpt>
      <trkpt lat="44.17355" lon="4.66735">
        <ele>188.6</ele>
        <time>2020-02-23T10:46:21Z</time>
      </trkpt>
      <trkpt lat="44.17337" lon="4.66733">
        <ele>186.2</ele>
        <time>2020-02-23T10:46:25Z</time>
      </trkpt>
      <trkpt lat="44.17331" lon="4.66733">
        <ele>184.2</ele>
        <time>2020-02-23T10:46:26Z</time>
      </trkpt>
      <trkpt lat="44.1731" lon="4.66734">
        <ele>181.1</ele>
        <time>2020-02-23T10:46:29Z</time>
      </trkpt>
      <trkpt lat="44.17304" lon="4.66734">
        <ele>179.9</ele>
        <time>2020-02-23T10:46:30Z</time>
      </trkpt>
      <trkpt lat="44.17282" lon="4.6674">
        <ele>176.4</ele>
        <time>2020-02-23T10:46:34Z</time>
      </trkpt>
      <trkpt lat="44.17266" lon="4.6675">
        <ele>173.7</ele>
        <time>2020-02-23T10:46:41Z</time>
      </trkpt>
      <trkpt lat="44.17266" lon="4.66751">
        <ele>173.5</ele>
        <time>2020-02-23T10:46:43Z</time>
      </trkpt>
      <trkpt lat="44.17256" lon="4.66755">
        <ele>172.4</ele>
        <time>2020-02-23T10:47:18Z</time>
      </trkpt>
      <trkpt lat="44.17254" lon="4.66755">
        <ele>172.2</ele>
        <time>2020-02-23T10:47:22Z</time>
      </trkpt>
      <trkpt lat="44.17245" lon="4.66753">
        <ele>171.2</ele>
        <time>2020-02-23T10:48:50Z</time>
      </trkpt>
      <trkpt lat="44.17227" lon="4.66752">
        <ele>169.4</ele>
        <time>2020-02-23T10:48:56Z</time>
      </trkpt>
      <trkpt lat="44.17214" lon="4.66766">
        <ele>166.7</ele>
        <time>2020-02-23T10:49:04Z</time>
      </trkpt>
      <trkpt lat="44.17196" lon="4.66767">
        <ele>165</ele>
        <time>2020-02-23T10:49:12Z</time>
      </trkpt>
      <trkpt lat="44.17176" lon="4.66774">
        <ele>162.2</ele>
        <time>2020-02-23T10:49:20Z</time>
      </trkpt>
      <trkpt lat="44.17159" lon="4.66781">
        <ele>160.2</ele>
        <time>2020-02-23T10:49:26Z</time>
      </trkpt>
      <trkpt lat="44.17138" lon="4.66788">
        <ele>157</ele>
        <time>2020-02-23T10:49:33Z</time>
      </trkpt>
      <trkpt lat="44.17121" lon="4.66796">
        <ele>154.2</ele>
        <time>2020-02-23T10:49:39Z</time>
      </trkpt>
      <trkpt lat="44.17103" lon="4.66806">
        <ele>151.9</ele>
        <time>2020-02-23T10:49:45Z</time>
      </trkpt>
      <trkpt lat="44.17086" lon="4.66822">
        <ele>150.5</ele>
        <time>2020-02-23T10:49:51Z</time>
      </trkpt>
      <trkpt lat="44.17072" lon="4.66842">
        <ele>149.8</ele>
        <time>2020-02-23T10:49:57Z</time>
      </trkpt>
      <trkpt lat="44.17057" lon="4.66864">
        <ele>148.5</ele>
        <time>2020-02-23T10:50:03Z</time>
      </trkpt>
      <trkpt lat="44.17045" lon="4.66884">
        <ele>148.1</ele>
        <time>2020-02-23T10:50:08Z</time>
      </trkpt>
      <trkpt lat="44.17037" lon="4.66907">
        <ele>148.8</ele>
        <time>2020-02-23T10:50:14Z</time>
      </trkpt>
      <trkpt lat="44.17027" lon="4.66932">
        <ele>150.4</ele>
        <time>2020-02-23T10:50:23Z</time>
      </trkpt>
      <trkpt lat="44.17023" lon="4.66936">
        <ele>149.5</ele>
        <time>2020-02-23T10:50:24Z</time>
      </trkpt>
      <trkpt lat="44.17008" lon="4.66939">
        <ele>148.8</ele>
        <time>2020-02-23T10:50:28Z</time>
      </trkpt>
      <trkpt lat="44.16988" lon="4.6694">
        <ele>147.5</ele>
        <time>2020-02-23T10:50:33Z</time>
      </trkpt>
      <trkpt lat="44.16976" lon="4.66935">
        <ele>146</ele>
        <time>2020-02-23T10:50:40Z</time>
      </trkpt>
      <trkpt lat="44.16978" lon="4.66925">
        <ele>145.2</ele>
        <time>2020-02-23T10:51:13Z</time>
      </trkpt>
      <trkpt lat="44.16969" lon="4.66919">
        <ele>143</ele>
        <time>2020-02-23T10:51:19Z</time>
      </trkpt>
      <trkpt lat="44.16968" lon="4.66917">
        <ele>142.6</ele>
        <time>2020-02-23T10:51:20Z</time>
      </trkpt>
      <trkpt lat="44.16959" lon="4.6691">
        <ele>141.2</ele>
        <time>2020-02-23T10:51:24Z</time>
      </trkpt>
      <trkpt lat="44.16941" lon="4.66903">
        <ele>139.3</ele>
        <time>2020-02-23T10:51:31Z</time>
      </trkpt>
      <trkpt lat="44.16933" lon="4.66902">
        <ele>138.5</ele>
        <time>2020-02-23T10:51:35Z</time>
      </trkpt>
      <trkpt lat="44.16919" lon="4.66901">
        <ele>137.1</ele>
        <time>2020-02-23T10:51:40Z</time>
      </trkpt>
      <trkpt lat="44.16915" lon="4.66899">
        <ele>136.6</ele>
        <time>2020-02-23T10:51:43Z</time>
      </trkpt>
      <trkpt lat="44.16904" lon="4.66904">
        <ele>136.4</ele>
        <time>2020-02-23T10:51:49Z</time>
      </trkpt>
      <trkpt lat="44.16895" lon="4.66904">
        <ele>136</ele>
        <time>2020-02-23T10:51:53Z</time>
      </trkpt>
      <trkpt lat="44.16877" lon="4.66908">
        <ele>136.3</ele>
        <time>2020-02-23T10:52:02Z</time>
      </trkpt>
      <trkpt lat="44.16858" lon="4.66903">
        <ele>136.2</ele>
        <time>2020-02-23T10:52:11Z</time>
      </trkpt>
      <trkpt lat="44.16854" lon="4.66902">
        <ele>136.2</ele>
        <time>2020-02-23T10:52:13Z</time>
      </trkpt>
      <trkpt lat="44.16848" lon="4.66896">
        <ele>135.5</ele>
        <time>2020-02-23T10:52:17Z</time>
      </trkpt>
      <trkpt lat="44.16831" lon="4.66887">
        <ele>135.3</ele>
        <time>2020-02-23T10:52:26Z</time>
      </trkpt>
      <trkpt lat="44.16816" lon="4.66874">
        <ele>134.6</ele>
        <time>2020-02-23T10:52:39Z</time>
      </trkpt>
      <trkpt lat="44.16804" lon="4.66851">
        <ele>133.6</ele>
        <time>2020-02-23T10:52:47Z</time>
      </trkpt>
      <trkpt lat="44.16797" lon="4.66845">
        <ele>133.2</ele>
        <time>2020-02-23T10:52:53Z</time>
      </trkpt>
      <trkpt lat="44.16796" lon="4.66836">
        <ele>132.9</ele>
        <time>2020-02-23T10:53:13Z</time>
      </trkpt>
      <trkpt lat="44.16786" lon="4.66814">
        <ele>131.8</ele>
        <time>2020-02-23T10:53:19Z</time>
      </trkpt>
      <trkpt lat="44.16778" lon="4.66791">
        <ele>130.6</ele>
        <time>2020-02-23T10:53:24Z</time>
      </trkpt>
      <trkpt lat="44.16767" lon="4.66769">
        <ele>129.5</ele>
        <time>2020-02-23T10:53:32Z</time>
      </trkpt>
      <trkpt lat="44.16755" lon="4.6675">
        <ele>128.3</ele>
        <time>2020-02-23T10:53:38Z</time>
      </trkpt>
      <trkpt lat="44.16743" lon="4.66727">
        <ele>127</ele>
        <time>2020-02-23T10:53:44Z</time>
      </trkpt>
      <trkpt lat="44.16735" lon="4.66703">
        <ele>126.1</ele>
        <time>2020-02-23T10:53:49Z</time>
      </trkpt>
      <trkpt lat="44.16719" lon="4.66686">
        <ele>125.3</ele>
        <time>2020-02-23T10:53:55Z</time>
      </trkpt>
      <trkpt lat="44.16703" lon="4.66668">
        <ele>125.1</ele>
        <time>2020-02-23T10:54:01Z</time>
      </trkpt>
      <trkpt lat="44.16688" lon="4.66653">
        <ele>125.3</ele>
        <time>2020-02-23T10:54:06Z</time>
      </trkpt>
      <trkpt lat="44.16675" lon="4.66636">
        <ele>125.6</ele>
        <time>2020-02-23T10:54:11Z</time>
      </trkpt>
      <trkpt lat="44.16659" lon="4.66615">
        <ele>125.9</ele>
        <time>2020-02-23T10:54:16Z</time>
      </trkpt>
      <trkpt lat="44.16644" lon="4.66602">
        <ele>126</ele>
        <time>2020-02-23T10:54:22Z</time>
      </trkpt>
      <trkpt lat="44.16633" lon="4.66582">
        <ele>126.3</ele>
        <time>2020-02-23T10:54:33Z</time>
      </trkpt>
      <trkpt lat="44.1662" lon="4.66563">
        <ele>127.4</ele>
        <time>2020-02-23T10:54:45Z</time>
      </trkpt>
      <trkpt lat="44.16606" lon="4.66545">
        <ele>128.8</ele>
        <time>2020-02-23T10:54:57Z</time>
      </trkpt>
      <trkpt lat="44.166" lon="4.6654">
        <ele>129.5</ele>
        <time>2020-02-23T10:55:03Z</time>
      </trkpt>
      <trkpt lat="44.16574" lon="4.66536">
        <ele>131.7</ele>
        <time>2020-02-23T10:56:00Z</time>
      </trkpt>
      <trkpt lat="44.16556" lon="4.66541">
        <ele>132.7</ele>
        <time>2020-02-23T10:56:08Z</time>
      </trkpt>
      <trkpt lat="44.16545" lon="4.66558">
        <ele>134.2</ele>
        <time>2020-02-23T10:56:19Z</time>
      </trkpt>
      <trkpt lat="44.16538" lon="4.66566">
        <ele>133.7</ele>
        <time>2020-02-23T10:57:28Z</time>
      </trkpt>
      <trkpt lat="44.16519" lon="4.6657">
        <ele>131.2</ele>
        <time>2020-02-23T10:57:36Z</time>
      </trkpt>
      <trkpt lat="44.16505" lon="4.66561">
        <ele>129.4</ele>
        <time>2020-02-23T10:57:42Z</time>
      </trkpt>
      <trkpt lat="44.16487" lon="4.66561">
        <ele>126.6</ele>
        <time>2020-02-23T10:57:51Z</time>
      </trkpt>
      <trkpt lat="44.16484" lon="4.6656">
        <ele>126.3</ele>
        <time>2020-02-23T10:57:55Z</time>
      </trkpt>
      <trkpt lat="44.16485" lon="4.66544">
        <ele>125.2</ele>
        <time>2020-02-23T10:59:34Z</time>
      </trkpt>
      <trkpt lat="44.16493" lon="4.66521">
        <ele>123.4</ele>
        <time>2020-02-23T10:59:39Z</time>
      </trkpt>
      <trkpt lat="44.16499" lon="4.665">
        <ele>122</ele>
        <time>2020-02-23T10:59:42Z</time>
      </trkpt>
      <trkpt lat="44.16508" lon="4.66472">
        <ele>119.9</ele>
        <time>2020-02-23T10:59:46Z</time>
      </trkpt>
      <trkpt lat="44.16511" lon="4.66467">
        <ele>119.4</ele>
        <time>2020-02-23T10:59:47Z</time>
      </trkpt>
      <trkpt lat="44.16524" lon="4.66445">
        <ele>116.8</ele>
        <time>2020-02-23T10:59:52Z</time>
      </trkpt>
      <trkpt lat="44.16537" lon="4.66423">
        <ele>113.3</ele>
        <time>2020-02-23T10:59:58Z</time>
      </trkpt>
      <trkpt lat="44.16549" lon="4.66401">
        <ele>110</ele>
        <time>2020-02-23T11:00:05Z</time>
      </trkpt>
      <trkpt lat="44.16565" lon="4.66383">
        <ele>106.9</ele>
        <time>2020-02-23T11:00:12Z</time>
      </trkpt>
      <trkpt lat="44.1658" lon="4.6637">
        <ele>104.1</ele>
        <time>2020-02-23T11:00:19Z</time>
      </trkpt>
      <trkpt lat="44.16598" lon="4.66361">
        <ele>101.6</ele>
        <time>2020-02-23T11:00:26Z</time>
      </trkpt>
      <trkpt lat="44.16613" lon="4.66355">
        <ele>99.6</ele>
        <time>2020-02-23T11:00:35Z</time>
      </trkpt>
      <trkpt lat="44.16644" lon="4.66356">
        <ele>98.2</ele>
        <time>2020-02-23T11:02:24Z</time>
      </trkpt>
      <trkpt lat="44.16661" lon="4.6637">
        <ele>97.5</ele>
        <time>2020-02-23T11:02:33Z</time>
      </trkpt>
      <trkpt lat="44.16678" lon="4.66363">
        <ele>95.5</ele>
        <time>2020-02-23T11:02:40Z</time>
      </trkpt>
      <trkpt lat="44.16681" lon="4.66349">
        <ele>93.4</ele>
        <time>2020-02-23T11:02:44Z</time>
      </trkpt>
      <trkpt lat="44.16664" lon="4.6634">
        <ele>90.6</ele>
        <time>2020-02-23T11:02:50Z</time>
      </trkpt>
      <trkpt lat="44.16648" lon="4.66329">
        <ele>88.9</ele>
        <time>2020-02-23T11:02:55Z</time>
      </trkpt>
      <trkpt lat="44.16631" lon="4.66318">
        <ele>87.3</ele>
        <time>2020-02-23T11:03:00Z</time>
      </trkpt>
      <trkpt lat="44.16612" lon="4.66313">
        <ele>86.5</ele>
        <time>2020-02-23T11:03:05Z</time>
      </trkpt>
      <trkpt lat="44.16594" lon="4.66307">
        <ele>85.3</ele>
        <time>2020-02-23T11:03:14Z</time>
      </trkpt>
      <trkpt lat="44.16587" lon="4.6631">
        <ele>84.7</ele>
        <time>2020-02-23T11:03:19Z</time>
      </trkpt>
      <trkpt lat="44.16571" lon="4.66296">
        <ele>83.3</ele>
        <time>2020-02-23T11:03:27Z</time>
      </trkpt>
      <trkpt lat="44.16553" lon="4.66286">
        <ele>81.8</ele>
        <time>2020-02-23T11:03:34Z</time>
      </trkpt>
      <trkpt lat="44.16536" lon="4.66274">
        <ele>80</ele>
        <time>2020-02-23T11:03:42Z</time>
      </trkpt>
      <trkpt lat="44.16519" lon="4.6626">
        <ele>78.3</ele>
        <time>2020-02-23T11:03:50Z</time>
      </trkpt>
      <trkpt lat="44.165" lon="4.66254">
        <ele>76.1</ele>
        <time>2020-02-23T11:03:59Z</time>
      </trkpt>
      <trkpt lat="44.16482" lon="4.66241">
        <ele>74.5</ele>
        <time>2020-02-23T11:04:08Z</time>
      </trkpt>
      <trkpt lat="44.16467" lon="4.66245">
        <ele>74</ele>
        <time>2020-02-23T11:04:14Z</time>
      </trkpt>
      <trkpt lat="44.16448" lon="4.6624">
        <ele>73.1</ele>
        <time>2020-02-23T11:04:21Z</time>
      </trkpt>
      <trkpt lat="44.16444" lon="4.6624">
        <ele>72.9</ele>
        <time>2020-02-23T11:04:24Z</time>
      </trkpt>
      <trkpt lat="44.1643" lon="4.66239">
        <ele>72.3</ele>
        <time>2020-02-23T11:05:05Z</time>
      </trkpt>
      <trkpt lat="44.1641" lon="4.66238">
        <ele>72.1</ele>
        <time>2020-02-23T11:05:12Z</time>
      </trkpt>
      <trkpt lat="44.16392" lon="4.66248">
        <ele>72.9</ele>
        <time>2020-02-23T11:05:23Z</time>
      </trkpt>
      <trkpt lat="44.16374" lon="4.66255">
        <ele>73.9</ele>
        <time>2020-02-23T11:05:30Z</time>
      </trkpt>
      <trkpt lat="44.1636" lon="4.66273">
        <ele>74.9</ele>
        <time>2020-02-23T11:05:38Z</time>
      </trkpt>
      <trkpt lat="44.16343" lon="4.66287">
        <ele>76.3</ele>
        <time>2020-02-23T11:05:47Z</time>
      </trkpt>
      <trkpt lat="44.1633" lon="4.66299">
        <ele>78.4</ele>
        <time>2020-02-23T11:05:58Z</time>
      </trkpt>
      <trkpt lat="44.16326" lon="4.66301">
        <ele>78.8</ele>
        <time>2020-02-23T11:07:06Z</time>
      </trkpt>
      <trkpt lat="44.16328" lon="4.66301">
        <ele>78.9</ele>
        <time>2020-02-23T11:07:07Z</time>
      </trkpt>
      <trkpt lat="44.16324" lon="4.66324">
        <ele>80.5</ele>
        <time>2020-02-23T11:09:17Z</time>
      </trkpt>
      <trkpt lat="44.16319" lon="4.66344">
        <ele>81.9</ele>
        <time>2020-02-23T11:09:28Z</time>
      </trkpt>
      <trkpt lat="44.16301" lon="4.66348">
        <ele>84.2</ele>
        <time>2020-02-23T11:09:43Z</time>
      </trkpt>
      <trkpt lat="44.16285" lon="4.66361">
        <ele>85.8</ele>
        <time>2020-02-23T11:09:56Z</time>
      </trkpt>
      <trkpt lat="44.16271" lon="4.66376">
        <ele>87.3</ele>
        <time>2020-02-23T11:10:11Z</time>
      </trkpt>
      <trkpt lat="44.16259" lon="4.66395">
        <ele>88.6</ele>
        <time>2020-02-23T11:10:25Z</time>
      </trkpt>
      <trkpt lat="44.16253" lon="4.66407">
        <ele>89.2</ele>
        <time>2020-02-23T11:10:35Z</time>
      </trkpt>
      <trkpt lat="44.16224" lon="4.66414">
        <ele>90.8</ele>
        <time>2020-02-23T11:11:15Z</time>
      </trkpt>
      <trkpt lat="44.16207" lon="4.664">
        <ele>91.6</ele>
        <time>2020-02-23T11:11:23Z</time>
      </trkpt>
      <trkpt lat="44.16189" lon="4.66404">
        <ele>92.6</ele>
        <time>2020-02-23T11:11:34Z</time>
      </trkpt>
      <trkpt lat="44.16174" lon="4.6642">
        <ele>94</ele>
        <time>2020-02-23T11:11:45Z</time>
      </trkpt>
      <trkpt lat="44.16161" lon="4.66439">
        <ele>96</ele>
        <time>2020-02-23T11:11:55Z</time>
      </trkpt>
      <trkpt lat="44.16151" lon="4.66461">
        <ele>97.3</ele>
        <time>2020-02-23T11:12:07Z</time>
      </trkpt>
      <trkpt lat="44.16142" lon="4.66483">
        <ele>98</ele>
        <time>2020-02-23T11:12:19Z</time>
      </trkpt>
      <trkpt lat="44.16142" lon="4.66509">
        <ele>98.2</ele>
        <time>2020-02-23T11:12:32Z</time>
      </trkpt>
      <trkpt lat="44.16153" lon="4.66526">
        <ele>98</ele>
        <time>2020-02-23T11:12:44Z</time>
      </trkpt>
      <trkpt lat="44.16173" lon="4.66526">
        <ele>97.2</ele>
        <time>2020-02-23T11:12:55Z</time>
      </trkpt>
      <trkpt lat="44.16191" lon="4.66534">
        <ele>97.2</ele>
        <time>2020-02-23T11:13:04Z</time>
      </trkpt>
      <trkpt lat="44.16209" lon="4.66527">
        <ele>97.7</ele>
        <time>2020-02-23T11:13:12Z</time>
      </trkpt>
      <trkpt lat="44.16228" lon="4.6653">
        <ele>98.4</ele>
        <time>2020-02-23T11:13:19Z</time>
      </trkpt>
      <trkpt lat="44.16229" lon="4.66531">
        <ele>98.5</ele>
        <time>2020-02-23T11:13:20Z</time>
      </trkpt>
      <trkpt lat="44.1624" lon="4.6653">
        <ele>98.8</ele>
        <time>2020-02-23T11:13:28Z</time>
      </trkpt>
      <trkpt lat="44.1626" lon="4.66523">
        <ele>99.2</ele>
        <time>2020-02-23T11:13:36Z</time>
      </trkpt>
      <trkpt lat="44.16282" lon="4.6653">
        <ele>100.1</ele>
        <time>2020-02-23T11:13:42Z</time>
      </trkpt>
      <trkpt lat="44.16302" lon="4.66537">
        <ele>100.5</ele>
        <time>2020-02-23T11:13:47Z</time>
      </trkpt>
      <trkpt lat="44.16322" lon="4.66546">
        <ele>100.6</ele>
        <time>2020-02-23T11:13:52Z</time>
      </trkpt>
      <trkpt lat="44.16335" lon="4.6655">
        <ele>101.4</ele>
        <time>2020-02-23T11:13:57Z</time>
      </trkpt>
      <trkpt lat="44.16341" lon="4.66573">
        <ele>103</ele>
        <time>2020-02-23T11:14:07Z</time>
      </trkpt>
      <trkpt lat="44.16347" lon="4.66596">
        <ele>104.3</ele>
        <time>2020-02-23T11:14:15Z</time>
      </trkpt>
      <trkpt lat="44.16352" lon="4.66624">
        <ele>105.8</ele>
        <time>2020-02-23T11:14:24Z</time>
      </trkpt>
      <trkpt lat="44.16356" lon="4.66649">
        <ele>107</ele>
        <time>2020-02-23T11:14:32Z</time>
      </trkpt>
      <trkpt lat="44.16361" lon="4.66677">
        <ele>107.9</ele>
        <time>2020-02-23T11:14:40Z</time>
      </trkpt>
      <trkpt lat="44.16364" lon="4.66704">
        <ele>108.9</ele>
        <time>2020-02-23T11:14:48Z</time>
      </trkpt>
      <trkpt lat="44.16364" lon="4.66732">
        <ele>108.9</ele>
        <time>2020-02-23T11:14:55Z</time>
      </trkpt>
      <trkpt lat="44.16364" lon="4.66758">
        <ele>109.2</ele>
        <time>2020-02-23T11:15:04Z</time>
      </trkpt>
      <trkpt lat="44.16367" lon="4.66785">
        <ele>110</ele>
        <time>2020-02-23T11:15:14Z</time>
      </trkpt>
      <trkpt lat="44.16374" lon="4.66811">
        <ele>112.2</ele>
        <time>2020-02-23T11:15:23Z</time>
      </trkpt>
      <trkpt lat="44.16381" lon="4.66838">
        <ele>114.1</ele>
        <time>2020-02-23T11:15:31Z</time>
      </trkpt>
      <trkpt lat="44.16385" lon="4.66865">
        <ele>114.4</ele>
        <time>2020-02-23T11:15:38Z</time>
      </trkpt>
      <trkpt lat="44.1639" lon="4.6689">
        <ele>114.9</ele>
        <time>2020-02-23T11:15:44Z</time>
      </trkpt>
      <trkpt lat="44.16396" lon="4.66918">
        <ele>115.5</ele>
        <time>2020-02-23T11:15:50Z</time>
      </trkpt>
      <trkpt lat="44.16399" lon="4.66946">
        <ele>115.1</ele>
        <time>2020-02-23T11:15:56Z</time>
      </trkpt>
      <trkpt lat="44.16394" lon="4.66968">
        <ele>113.4</ele>
        <time>2020-02-23T11:16:02Z</time>
      </trkpt>
      <trkpt lat="44.16372" lon="4.66979">
        <ele>109.2</ele>
        <time>2020-02-23T11:16:06Z</time>
      </trkpt>
      <trkpt lat="44.16368" lon="4.66983">
        <ele>108.9</ele>
        <time>2020-02-23T11:16:07Z</time>
      </trkpt>
      <trkpt lat="44.16347" lon="4.67001">
        <ele>106</ele>
        <time>2020-02-23T11:16:11Z</time>
      </trkpt>
      <trkpt lat="44.16337" lon="4.67011">
        <ele>105</ele>
        <time>2020-02-23T11:16:13Z</time>
      </trkpt>
      <trkpt lat="44.16329" lon="4.67034">
        <ele>103.6</ele>
        <time>2020-02-23T11:16:16Z</time>
      </trkpt>
      <trkpt lat="44.16334" lon="4.67058">
        <ele>103</ele>
        <time>2020-02-23T11:16:20Z</time>
      </trkpt>
      <trkpt lat="44.16336" lon="4.67062">
        <ele>102.8</ele>
        <time>2020-02-23T11:16:21Z</time>
      </trkpt>
      <trkpt lat="44.16334" lon="4.67071">
        <ele>102.5</ele>
        <time>2020-02-23T11:16:25Z</time>
      </trkpt>
      <trkpt lat="44.16314" lon="4.67064">
        <ele>101.6</ele>
        <time>2020-02-23T11:16:31Z</time>
      </trkpt>
      <trkpt lat="44.16308" lon="4.67078">
        <ele>101.3</ele>
        <time>2020-02-23T11:16:34Z</time>
      </trkpt>
      <trkpt lat="44.16306" lon="4.67083">
        <ele>101.3</ele>
        <time>2020-02-23T11:16:35Z</time>
      </trkpt>
      <trkpt lat="44.16305" lon="4.67109">
        <ele>101.7</ele>
        <time>2020-02-23T11:16:45Z</time>
      </trkpt>
      <trkpt lat="44.16309" lon="4.67136">
        <ele>102.7</ele>
        <time>2020-02-23T11:16:56Z</time>
      </trkpt>
      <trkpt lat="44.16316" lon="4.67163">
        <ele>103.7</ele>
        <time>2020-02-23T11:17:05Z</time>
      </trkpt>
      <trkpt lat="44.1632" lon="4.67188">
        <ele>104.7</ele>
        <time>2020-02-23T11:17:14Z</time>
      </trkpt>
      <trkpt lat="44.16314" lon="4.67213">
        <ele>105.7</ele>
        <time>2020-02-23T11:17:23Z</time>
      </trkpt>
      <trkpt lat="44.16306" lon="4.67236">
        <ele>106.8</ele>
        <time>2020-02-23T11:17:32Z</time>
      </trkpt>
      <trkpt lat="44.16296" lon="4.67259">
        <ele>108.3</ele>
        <time>2020-02-23T11:17:45Z</time>
      </trkpt>
      <trkpt lat="44.16288" lon="4.67281">
        <ele>109.8</ele>
        <time>2020-02-23T11:17:59Z</time>
      </trkpt>
      <trkpt lat="44.16281" lon="4.67306">
        <ele>111.1</ele>
        <time>2020-02-23T11:18:13Z</time>
      </trkpt>
      <trkpt lat="44.16273" lon="4.6733">
        <ele>113.6</ele>
        <time>2020-02-23T11:18:27Z</time>
      </trkpt>
      <trkpt lat="44.16266" lon="4.67354">
        <ele>115.4</ele>
        <time>2020-02-23T11:18:41Z</time>
      </trkpt>
      <trkpt lat="44.16259" lon="4.67378">
        <ele>116.6</ele>
        <time>2020-02-23T11:18:53Z</time>
      </trkpt>
      <trkpt lat="44.16251" lon="4.67401">
        <ele>117</ele>
        <time>2020-02-23T11:19:03Z</time>
      </trkpt>
      <trkpt lat="44.16241" lon="4.67423">
        <ele>117.1</ele>
        <time>2020-02-23T11:19:11Z</time>
      </trkpt>
      <trkpt lat="44.16231" lon="4.6745">
        <ele>116.9</ele>
        <time>2020-02-23T11:19:17Z</time>
      </trkpt>
      <trkpt lat="44.16231" lon="4.67478">
        <ele>116.7</ele>
        <time>2020-02-23T11:19:21Z</time>
      </trkpt>
      <trkpt lat="44.16234" lon="4.67504">
        <ele>117</ele>
        <time>2020-02-23T11:19:28Z</time>
      </trkpt>
      <trkpt lat="44.16234" lon="4.67527">
        <ele>117.7</ele>
        <time>2020-02-23T11:19:39Z</time>
      </trkpt>
      <trkpt lat="44.1624" lon="4.67541">
        <ele>118.4</ele>
        <time>2020-02-23T11:19:48Z</time>
      </trkpt>
      <trkpt lat="44.16235" lon="4.67565">
        <ele>119.6</ele>
        <time>2020-02-23T11:19:58Z</time>
      </trkpt>
      <trkpt lat="44.16226" lon="4.67586">
        <ele>121.2</ele>
        <time>2020-02-23T11:20:08Z</time>
      </trkpt>
      <trkpt lat="44.16226" lon="4.67612">
        <ele>122.8</ele>
        <time>2020-02-23T11:20:19Z</time>
      </trkpt>
      <trkpt lat="44.16219" lon="4.67636">
        <ele>124.5</ele>
        <time>2020-02-23T11:20:29Z</time>
      </trkpt>
      <trkpt lat="44.16213" lon="4.67661">
        <ele>125.9</ele>
        <time>2020-02-23T11:20:42Z</time>
      </trkpt>
      <trkpt lat="44.16204" lon="4.67684">
        <ele>126.9</ele>
        <time>2020-02-23T11:20:55Z</time>
      </trkpt>
      <trkpt lat="44.16189" lon="4.67696">
        <ele>128</ele>
        <time>2020-02-23T11:21:11Z</time>
      </trkpt>
      <trkpt lat="44.16178" lon="4.67717">
        <ele>129.2</ele>
        <time>2020-02-23T11:21:26Z</time>
      </trkpt>
      <trkpt lat="44.16163" lon="4.6773">
        <ele>130.7</ele>
        <time>2020-02-23T11:21:39Z</time>
      </trkpt>
      <trkpt lat="44.16157" lon="4.6775">
        <ele>131.3</ele>
        <time>2020-02-23T11:21:51Z</time>
      </trkpt>
      <trkpt lat="44.16152" lon="4.67761">
        <ele>131.4</ele>
        <time>2020-02-23T11:21:58Z</time>
      </trkpt>
      <trkpt lat="44.16145" lon="4.67786">
        <ele>131.3</ele>
        <time>2020-02-23T11:22:11Z</time>
      </trkpt>
      <trkpt lat="44.1614" lon="4.67811">
        <ele>130.8</ele>
        <time>2020-02-23T11:22:25Z</time>
      </trkpt>
      <trkpt lat="44.16139" lon="4.67813">
        <ele>130.7</ele>
        <time>2020-02-23T11:22:27Z</time>
      </trkpt>
      <trkpt lat="44.16139" lon="4.67819">
        <ele>130.5</ele>
        <time>2020-02-23T11:22:31Z</time>
      </trkpt>
      <trkpt lat="44.16149" lon="4.67874">
        <ele>137.5</ele>
        <time>2020-02-23T11:23:11Z</time>
      </trkpt>
      <trkpt lat="44.1615" lon="4.67885">
        <ele>137.8</ele>
        <time>2020-02-23T11:23:16Z</time>
      </trkpt>
      <trkpt lat="44.1615" lon="4.67889">
        <ele>137.9</ele>
        <time>2020-02-23T11:23:18Z</time>
      </trkpt>
      <trkpt lat="44.16156" lon="4.67912">
        <ele>139.9</ele>
        <time>2020-02-23T11:23:32Z</time>
      </trkpt>
      <trkpt lat="44.16159" lon="4.67914">
        <ele>141</ele>
        <time>2020-02-23T11:23:36Z</time>
      </trkpt>
      <trkpt lat="44.16163" lon="4.67925">
        <ele>142.2</ele>
        <time>2020-02-23T11:23:44Z</time>
      </trkpt>
      <trkpt lat="44.16167" lon="4.6794">
        <ele>143.3</ele>
        <time>2020-02-23T11:23:55Z</time>
      </trkpt>
      <trkpt lat="44.16176" lon="4.67961">
        <ele>146</ele>
        <time>2020-02-23T11:24:51Z</time>
      </trkpt>
      <trkpt lat="44.16188" lon="4.67979">
        <ele>148.3</ele>
        <time>2020-02-23T11:25:07Z</time>
      </trkpt>
      <trkpt lat="44.16197" lon="4.67982">
        <ele>150.5</ele>
        <time>2020-02-23T11:25:18Z</time>
      </trkpt>
      <trkpt lat="44.16235" lon="4.67984">
        <ele>155.7</ele>
        <time>2020-02-23T11:30:40Z</time>
      </trkpt>
      <trkpt lat="44.16242" lon="4.67991">
        <ele>155.9</ele>
        <time>2020-02-23T11:30:46Z</time>
      </trkpt>
      <trkpt lat="44.16244" lon="4.68016">
        <ele>154</ele>
        <time>2020-02-23T11:31:00Z</time>
      </trkpt>
      <trkpt lat="44.16241" lon="4.68041">
        <ele>151.5</ele>
        <time>2020-02-23T11:31:10Z</time>
      </trkpt>
      <trkpt lat="44.16238" lon="4.68043">
        <ele>151.6</ele>
        <time>2020-02-23T11:31:12Z</time>
      </trkpt>
      <trkpt lat="44.16223" lon="4.68043">
        <ele>151.5</ele>
        <time>2020-02-23T11:31:23Z</time>
      </trkpt>
      <trkpt lat="44.16214" lon="4.68068">
        <ele>148.9</ele>
        <time>2020-02-23T11:31:29Z</time>
      </trkpt>
      <trkpt lat="44.16215" lon="4.68093">
        <ele>147.1</ele>
        <time>2020-02-23T11:31:35Z</time>
      </trkpt>
      <trkpt lat="44.16217" lon="4.68098">
        <ele>147.1</ele>
        <time>2020-02-23T11:31:36Z</time>
      </trkpt>
      <trkpt lat="44.16222" lon="4.68109">
        <ele>146.3</ele>
        <time>2020-02-23T11:31:38Z</time>
      </trkpt>
      <trkpt lat="44.16229" lon="4.68134">
        <ele>143.6</ele>
        <time>2020-02-23T11:31:43Z</time>
      </trkpt>
      <trkpt lat="44.16236" lon="4.68147">
        <ele>141.9</ele>
        <time>2020-02-23T11:31:46Z</time>
      </trkpt>
      <trkpt lat="44.16251" lon="4.68168">
        <ele>138.5</ele>
        <time>2020-02-23T11:31:50Z</time>
      </trkpt>
      <trkpt lat="44.1626" lon="4.68191">
        <ele>135</ele>
        <time>2020-02-23T11:31:55Z</time>
      </trkpt>
      <trkpt lat="44.16264" lon="4.68216">
        <ele>131.9</ele>
        <time>2020-02-23T11:32:00Z</time>
      </trkpt>
      <trkpt lat="44.16266" lon="4.68219">
        <ele>132</ele>
        <time>2020-02-23T11:32:02Z</time>
      </trkpt>
      <trkpt lat="44.16278" lon="4.68233">
        <ele>130.2</ele>
        <time>2020-02-23T11:32:10Z</time>
      </trkpt>
      <trkpt lat="44.16291" lon="4.68252">
        <ele>129.4</ele>
        <time>2020-02-23T11:32:19Z</time>
      </trkpt>
      <trkpt lat="44.16292" lon="4.68254">
        <ele>129.1</ele>
        <time>2020-02-23T11:32:20Z</time>
      </trkpt>
      <trkpt lat="44.16305" lon="4.68254">
        <ele>127.4</ele>
        <time>2020-02-23T11:32:25Z</time>
      </trkpt>
      <trkpt lat="44.16323" lon="4.68259">
        <ele>124.9</ele>
        <time>2020-02-23T11:32:30Z</time>
      </trkpt>
      <trkpt lat="44.16342" lon="4.68255">
        <ele>122.3</ele>
        <time>2020-02-23T11:32:35Z</time>
      </trkpt>
      <trkpt lat="44.16357" lon="4.68257">
        <ele>120.7</ele>
        <time>2020-02-23T11:32:38Z</time>
      </trkpt>
      <trkpt lat="44.16374" lon="4.68263">
        <ele>119.4</ele>
        <time>2020-02-23T11:32:41Z</time>
      </trkpt>
      <trkpt lat="44.1639" lon="4.68271">
        <ele>118.3</ele>
        <time>2020-02-23T11:32:44Z</time>
      </trkpt>
      <trkpt lat="44.16411" lon="4.68275">
        <ele>116.9</ele>
        <time>2020-02-23T11:32:48Z</time>
      </trkpt>
      <trkpt lat="44.16417" lon="4.68277">
        <ele>116.5</ele>
        <time>2020-02-23T11:32:49Z</time>
      </trkpt>
      <trkpt lat="44.1643" lon="4.68298">
        <ele>115</ele>
        <time>2020-02-23T11:32:53Z</time>
      </trkpt>
      <trkpt lat="44.16442" lon="4.68315">
        <ele>113.9</ele>
        <time>2020-02-23T11:32:56Z</time>
      </trkpt>
      <trkpt lat="44.1645" lon="4.68324">
        <ele>113.1</ele>
        <time>2020-02-23T11:32:58Z</time>
      </trkpt>
      <trkpt lat="44.16467" lon="4.68334">
        <ele>111.9</ele>
        <time>2020-02-23T11:33:02Z</time>
      </trkpt>
      <trkpt lat="44.16476" lon="4.68343">
        <ele>111.1</ele>
        <time>2020-02-23T11:33:04Z</time>
      </trkpt>
      <trkpt lat="44.16492" lon="4.6836">
        <ele>109.4</ele>
        <time>2020-02-23T11:33:08Z</time>
      </trkpt>
      <trkpt lat="44.16501" lon="4.68381">
        <ele>107.9</ele>
        <time>2020-02-23T11:33:12Z</time>
      </trkpt>
      <trkpt lat="44.16503" lon="4.68387">
        <ele>107.6</ele>
        <time>2020-02-23T11:33:13Z</time>
      </trkpt>
      <trkpt lat="44.16507" lon="4.68417">
        <ele>106.5</ele>
        <time>2020-02-23T11:33:18Z</time>
      </trkpt>
      <trkpt lat="44.16512" lon="4.68442">
        <ele>105.5</ele>
        <time>2020-02-23T11:33:22Z</time>
      </trkpt>
      <trkpt lat="44.16519" lon="4.68468">
        <ele>104.7</ele>
        <time>2020-02-23T11:33:26Z</time>
      </trkpt>
      <trkpt lat="44.16524" lon="4.68488">
        <ele>104.2</ele>
        <time>2020-02-23T11:33:29Z</time>
      </trkpt>
      <trkpt lat="44.16532" lon="4.68513">
        <ele>103.7</ele>
        <time>2020-02-23T11:33:35Z</time>
      </trkpt>
      <trkpt lat="44.16533" lon="4.68533">
        <ele>102.9</ele>
        <time>2020-02-23T11:33:42Z</time>
      </trkpt>
      <trkpt lat="44.1655" lon="4.68547">
        <ele>100.8</ele>
        <time>2020-02-23T11:33:48Z</time>
      </trkpt>
      <trkpt lat="44.16567" lon="4.68561">
        <ele>98.2</ele>
        <time>2020-02-23T11:33:51Z</time>
      </trkpt>
      <trkpt lat="44.1658" lon="4.6857">
        <ele>96.8</ele>
        <time>2020-02-23T11:33:53Z</time>
      </trkpt>
      <trkpt lat="44.16599" lon="4.68583">
        <ele>96.1</ele>
        <time>2020-02-23T11:33:56Z</time>
      </trkpt>
      <trkpt lat="44.16613" lon="4.68599">
        <ele>96</ele>
        <time>2020-02-23T11:33:59Z</time>
      </trkpt>
      <trkpt lat="44.16618" lon="4.68605">
        <ele>95.9</ele>
        <time>2020-02-23T11:34:00Z</time>
      </trkpt>
      <trkpt lat="44.16623" lon="4.6861">
        <ele>95.8</ele>
        <time>2020-02-23T11:34:01Z</time>
      </trkpt>
      <trkpt lat="44.16641" lon="4.68624">
        <ele>95.2</ele>
        <time>2020-02-23T11:34:06Z</time>
      </trkpt>
      <trkpt lat="44.16643" lon="4.68629">
        <ele>94.9</ele>
        <time>2020-02-23T11:34:11Z</time>
      </trkpt>
      <trkpt lat="44.16638" lon="4.68639">
        <ele>94.2</ele>
        <time>2020-02-23T11:34:56Z</time>
      </trkpt>
      <trkpt lat="44.1664" lon="4.68665">
        <ele>93.2</ele>
        <time>2020-02-23T11:35:01Z</time>
      </trkpt>
      <trkpt lat="44.16641" lon="4.68679">
        <ele>92.8</ele>
        <time>2020-02-23T11:35:03Z</time>
      </trkpt>
      <trkpt lat="44.16637" lon="4.68707">
        <ele>92.1</ele>
        <time>2020-02-23T11:35:07Z</time>
      </trkpt>
      <trkpt lat="44.16634" lon="4.68714">
        <ele>92</ele>
        <time>2020-02-23T11:35:08Z</time>
      </trkpt>
      <trkpt lat="44.16619" lon="4.68733">
        <ele>92.5</ele>
        <time>2020-02-23T11:35:12Z</time>
      </trkpt>
      <trkpt lat="44.166" lon="4.68733">
        <ele>93.5</ele>
        <time>2020-02-23T11:35:17Z</time>
      </trkpt>
      <trkpt lat="44.16594" lon="4.6873">
        <ele>93.8</ele>
        <time>2020-02-23T11:35:19Z</time>
      </trkpt>
      <trkpt lat="44.16577" lon="4.68715">
        <ele>94.8</ele>
        <time>2020-02-23T11:35:26Z</time>
      </trkpt>
      <trkpt lat="44.16561" lon="4.68705">
        <ele>95.8</ele>
        <time>2020-02-23T11:35:34Z</time>
      </trkpt>
      <trkpt lat="44.16541" lon="4.68699">
        <ele>97.1</ele>
        <time>2020-02-23T11:35:42Z</time>
      </trkpt>
      <trkpt lat="44.16522" lon="4.68689">
        <ele>98.6</ele>
        <time>2020-02-23T11:35:50Z</time>
      </trkpt>
      <trkpt lat="44.16505" lon="4.68674">
        <ele>100.2</ele>
        <time>2020-02-23T11:35:57Z</time>
      </trkpt>
      <trkpt lat="44.16489" lon="4.68662">
        <ele>101.5</ele>
        <time>2020-02-23T11:36:04Z</time>
      </trkpt>
      <trkpt lat="44.16471" lon="4.68656">
        <ele>102.9</ele>
        <time>2020-02-23T11:36:12Z</time>
      </trkpt>
      <trkpt lat="44.16453" lon="4.68647">
        <ele>104.1</ele>
        <time>2020-02-23T11:36:21Z</time>
      </trkpt>
      <trkpt lat="44.16438" lon="4.68632">
        <ele>105.2</ele>
        <time>2020-02-23T11:36:29Z</time>
      </trkpt>
      <trkpt lat="44.16421" lon="4.68619">
        <ele>106.5</ele>
        <time>2020-02-23T11:36:39Z</time>
      </trkpt>
      <trkpt lat="44.16404" lon="4.6861">
        <ele>107.6</ele>
        <time>2020-02-23T11:36:47Z</time>
      </trkpt>
      <trkpt lat="44.1639" lon="4.68593">
        <ele>109.3</ele>
        <time>2020-02-23T11:36:55Z</time>
      </trkpt>
      <trkpt lat="44.16376" lon="4.68574">
        <ele>110.9</ele>
        <time>2020-02-23T11:37:05Z</time>
      </trkpt>
      <trkpt lat="44.16361" lon="4.68557">
        <ele>112.2</ele>
        <time>2020-02-23T11:37:15Z</time>
      </trkpt>
      <trkpt lat="44.16346" lon="4.6854">
        <ele>113.4</ele>
        <time>2020-02-23T11:37:27Z</time>
      </trkpt>
      <trkpt lat="44.16331" lon="4.68523">
        <ele>115</ele>
        <time>2020-02-23T11:37:37Z</time>
      </trkpt>
      <trkpt lat="44.16325" lon="4.68517">
        <ele>116</ele>
        <time>2020-02-23T11:37:43Z</time>
      </trkpt>
      <trkpt lat="44.16318" lon="4.68507">
        <ele>117.4</ele>
        <time>2020-02-23T11:38:29Z</time>
      </trkpt>
      <trkpt lat="44.16305" lon="4.68488">
        <ele>119.3</ele>
        <time>2020-02-23T11:38:38Z</time>
      </trkpt>
      <trkpt lat="44.16291" lon="4.68471">
        <ele>120.3</ele>
        <time>2020-02-23T11:38:47Z</time>
      </trkpt>
      <trkpt lat="44.16275" lon="4.68455">
        <ele>121.2</ele>
        <time>2020-02-23T11:38:55Z</time>
      </trkpt>
      <trkpt lat="44.16259" lon="4.68437">
        <ele>121.9</ele>
        <time>2020-02-23T11:39:03Z</time>
      </trkpt>
      <trkpt lat="44.16249" lon="4.68414">
        <ele>122.9</ele>
        <time>2020-02-23T11:39:11Z</time>
      </trkpt>
      <trkpt lat="44.16241" lon="4.68388">
        <ele>123.8</ele>
        <time>2020-02-23T11:39:19Z</time>
      </trkpt>
      <trkpt lat="44.16233" lon="4.68363">
        <ele>124.4</ele>
        <time>2020-02-23T11:39:28Z</time>
      </trkpt>
      <trkpt lat="44.16225" lon="4.68338">
        <ele>125.5</ele>
        <time>2020-02-23T11:39:39Z</time>
      </trkpt>
      <trkpt lat="44.16217" lon="4.68315">
        <ele>126.3</ele>
        <time>2020-02-23T11:39:51Z</time>
      </trkpt>
      <trkpt lat="44.16204" lon="4.68294">
        <ele>127.4</ele>
        <time>2020-02-23T11:40:01Z</time>
      </trkpt>
      <trkpt lat="44.16192" lon="4.68275">
        <ele>128.7</ele>
        <time>2020-02-23T11:40:11Z</time>
      </trkpt>
      <trkpt lat="44.16175" lon="4.68261">
        <ele>130.4</ele>
        <time>2020-02-23T11:40:21Z</time>
      </trkpt>
      <trkpt lat="44.16159" lon="4.68247">
        <ele>131.5</ele>
        <time>2020-02-23T11:40:32Z</time>
      </trkpt>
      <trkpt lat="44.16145" lon="4.6823">
        <ele>132.6</ele>
        <time>2020-02-23T11:40:43Z</time>
      </trkpt>
      <trkpt lat="44.16127" lon="4.68222">
        <ele>133.3</ele>
        <time>2020-02-23T11:40:54Z</time>
      </trkpt>
      <trkpt lat="44.16111" lon="4.68209">
        <ele>134.3</ele>
        <time>2020-02-23T11:41:05Z</time>
      </trkpt>
      <trkpt lat="44.16099" lon="4.68189">
        <ele>135.5</ele>
        <time>2020-02-23T11:41:14Z</time>
      </trkpt>
      <trkpt lat="44.1609" lon="4.68167">
        <ele>136.3</ele>
        <time>2020-02-23T11:41:23Z</time>
      </trkpt>
      <trkpt lat="44.16089" lon="4.68141">
        <ele>136.8</ele>
        <time>2020-02-23T11:41:32Z</time>
      </trkpt>
      <trkpt lat="44.16084" lon="4.68112">
        <ele>137.1</ele>
        <time>2020-02-23T11:41:38Z</time>
      </trkpt>
      <trkpt lat="44.16083" lon="4.68086">
        <ele>136.7</ele>
        <time>2020-02-23T11:41:42Z</time>
      </trkpt>
      <trkpt lat="44.16084" lon="4.68055">
        <ele>135.5</ele>
        <time>2020-02-23T11:41:46Z</time>
      </trkpt>
      <trkpt lat="44.16087" lon="4.68026">
        <ele>134.5</ele>
        <time>2020-02-23T11:41:49Z</time>
      </trkpt>
      <trkpt lat="44.16087" lon="4.67997">
        <ele>133.3</ele>
        <time>2020-02-23T11:41:52Z</time>
      </trkpt>
      <trkpt lat="44.16085" lon="4.6799">
        <ele>133</ele>
        <time>2020-02-23T11:41:53Z</time>
      </trkpt>
      <trkpt lat="44.16079" lon="4.67972">
        <ele>131.9</ele>
        <time>2020-02-23T11:42:00Z</time>
      </trkpt>
    </trkseg>
  </trk>
</gpx>